UAE7MY OMDB-YPPH
Flight info
| Callsign | UAE7MY |
|---|---|
| Flight time | N/A |
| Altitude | 35000 |
| Route | ANVIX L223 TARDI DCT GIDAN P570 KITAL L894 BIBGO DCT LAVOX/N0489F370 DCT KADAP DCT 0500S08730E DCT BEBIM/N0482F390 DCT 15S100E 18S105E DCT WONSA DCT CAR B469 TOPIR/N0476F400 L514 AVPAL Q38 JULIM |
| Aircraft | A388/J-SADE2E3FGHIJ3J4J5M1RWXY/LB1D1 |
Departure
| Time | N/A |
|---|---|
| Airport | Dubai International Airport (OMDB) |
Arrival
| Time | 2026-05-04 04:53 |
|---|---|
| Airport | Perth International Airport (YPPH) |
| Time | Latitude | Longitude | Altitude | Speed | Heading |
|---|---|---|---|---|---|
| 2026-05-03 20:15 | 16.61277 | 63.46777 | 34845 ft | 521 kts | 139° |
| 2026-05-03 20:15 | 16.55697 | 63.51595 | 34844 ft | 521 kts | 139° |
| 2026-05-03 20:16 | 16.50159 | 63.56374 | 34842 ft | 521 kts | 139° |
| 2026-05-03 20:16 | 16.44565 | 63.61198 | 34844 ft | 521 kts | 139° |
| 2026-05-03 20:17 | 16.38989 | 63.66002 | 34843 ft | 520 kts | 139° |
| 2026-05-03 20:17 | 16.33409 | 63.70805 | 34846 ft | 520 kts | 139° |
| 2026-05-03 20:18 | 16.27824 | 63.75610 | 34844 ft | 520 kts | 139° |
| 2026-05-03 20:18 | 16.22243 | 63.80408 | 34843 ft | 520 kts | 139° |
| 2026-05-03 20:19 | 16.16662 | 63.85201 | 34842 ft | 520 kts | 139° |
| 2026-05-03 20:19 | 16.11079 | 63.89993 | 34844 ft | 520 kts | 139° |
| 2026-05-03 20:20 | 16.05542 | 63.94742 | 34842 ft | 520 kts | 139° |
| 2026-05-03 20:20 | 15.99965 | 63.99521 | 34854 ft | 519 kts | 139° |
| 2026-05-03 20:21 | 15.94395 | 64.04292 | 34851 ft | 519 kts | 139° |
| 2026-05-03 20:21 | 15.88823 | 64.09060 | 34850 ft | 518 kts | 139° |
| 2026-05-03 20:22 | 15.83267 | 64.13810 | 34844 ft | 518 kts | 139° |
| 2026-05-03 20:22 | 15.77704 | 64.18563 | 34843 ft | 518 kts | 139° |
| 2026-05-03 20:23 | 15.72140 | 64.23314 | 34849 ft | 517 kts | 139° |
| 2026-05-03 20:23 | 15.66581 | 64.28057 | 34849 ft | 517 kts | 140° |
| 2026-05-03 20:24 | 15.61032 | 64.32789 | 34852 ft | 516 kts | 140° |
| 2026-05-03 20:24 | 15.55476 | 64.37522 | 34845 ft | 516 kts | 140° |
| 2026-05-03 20:25 | 15.49921 | 64.42251 | 34839 ft | 517 kts | 140° |
| 2026-05-03 20:25 | 15.44400 | 64.46948 | 34855 ft | 516 kts | 140° |
| 2026-05-03 20:26 | 15.38843 | 64.51672 | 34856 ft | 516 kts | 140° |
| 2026-05-03 20:26 | 15.33300 | 64.56382 | 34853 ft | 515 kts | 140° |
| 2026-05-03 20:27 | 15.27739 | 64.61102 | 34852 ft | 515 kts | 140° |
| 2026-05-03 20:27 | 15.22195 | 64.65805 | 34852 ft | 515 kts | 140° |
| 2026-05-03 20:28 | 15.16675 | 64.70485 | 34857 ft | 515 kts | 140° |
| 2026-05-03 20:28 | 15.11101 | 64.75207 | 34855 ft | 514 kts | 140° |
| 2026-05-03 20:29 | 15.05599 | 64.79865 | 34850 ft | 514 kts | 140° |
| 2026-05-03 20:29 | 15.00063 | 64.84549 | 34856 ft | 514 kts | 140° |
| 2026-05-03 20:30 | 14.94520 | 64.89234 | 34858 ft | 514 kts | 140° |
| 2026-05-03 20:30 | 14.88982 | 64.93913 | 34856 ft | 514 kts | 140° |
| 2026-05-03 20:31 | 14.83440 | 64.98592 | 34863 ft | 513 kts | 140° |
| 2026-05-03 20:31 | 14.77922 | 65.03247 | 34855 ft | 512 kts | 140° |
| 2026-05-03 20:32 | 14.72401 | 65.07902 | 34854 ft | 512 kts | 140° |
| 2026-05-03 20:32 | 14.66926 | 65.12515 | 34861 ft | 511 kts | 140° |
| 2026-05-03 20:33 | 14.61425 | 65.17148 | 34849 ft | 510 kts | 140° |
| 2026-05-03 20:33 | 14.55922 | 65.21777 | 34848 ft | 510 kts | 140° |
| 2026-05-03 20:34 | 14.50419 | 65.26398 | 34862 ft | 510 kts | 140° |
| 2026-05-03 20:34 | 14.44916 | 65.31019 | 34864 ft | 510 kts | 140° |
| 2026-05-03 20:35 | 14.39416 | 65.35635 | 34854 ft | 510 kts | 140° |
| 2026-05-03 20:35 | 14.33912 | 65.40251 | 34855 ft | 510 kts | 140° |
| 2026-05-03 20:36 | 14.28405 | 65.44867 | 34858 ft | 510 kts | 140° |
| 2026-05-03 20:36 | 14.22898 | 65.49479 | 34859 ft | 510 kts | 140° |
| 2026-05-03 20:37 | 14.17392 | 65.54088 | 34868 ft | 510 kts | 140° |
| 2026-05-03 20:37 | 14.11880 | 65.58698 | 34865 ft | 510 kts | 140° |
| 2026-05-03 20:38 | 14.06370 | 65.63304 | 34859 ft | 510 kts | 140° |
| 2026-05-03 20:38 | 14.00865 | 65.67905 | 34866 ft | 510 kts | 140° |
| 2026-05-03 20:39 | 13.95353 | 65.72506 | 34868 ft | 509 kts | 140° |
| 2026-05-03 20:39 | 13.89846 | 65.77101 | 34864 ft | 509 kts | 140° |
| 2026-05-03 20:40 | 13.84343 | 65.81689 | 34863 ft | 509 kts | 140° |
| 2026-05-03 20:40 | 13.78874 | 65.86246 | 34852 ft | 509 kts | 140° |
| 2026-05-03 20:41 | 13.73364 | 65.90836 | 34853 ft | 509 kts | 140° |
| 2026-05-03 20:41 | 13.67860 | 65.95417 | 34862 ft | 509 kts | 140° |
| 2026-05-03 20:42 | 13.62355 | 65.99994 | 34855 ft | 509 kts | 140° |
| 2026-05-03 20:42 | 13.56854 | 66.04567 | 34852 ft | 509 kts | 140° |
| 2026-05-03 20:43 | 13.51341 | 66.09147 | 34857 ft | 509 kts | 140° |
| 2026-05-03 20:43 | 13.45830 | 66.13722 | 34856 ft | 509 kts | 140° |
| 2026-05-03 20:44 | 13.40322 | 66.18292 | 34862 ft | 509 kts | 140° |
| 2026-05-03 20:44 | 13.34813 | 66.22859 | 34856 ft | 509 kts | 140° |
| 2026-05-03 20:45 | 13.29330 | 66.27403 | 34855 ft | 509 kts | 140° |
| 2026-05-03 20:45 | 13.23810 | 66.31976 | 34861 ft | 509 kts | 140° |
| 2026-05-03 20:46 | 13.18288 | 66.36546 | 34865 ft | 509 kts | 140° |
| 2026-05-03 20:46 | 13.12775 | 66.41107 | 34861 ft | 509 kts | 140° |
| 2026-05-03 20:47 | 13.07261 | 66.45665 | 34866 ft | 509 kts | 140° |
| 2026-05-03 20:47 | 13.01740 | 66.50226 | 34864 ft | 509 kts | 140° |
| 2026-05-03 20:48 | 12.96219 | 66.54786 | 34864 ft | 509 kts | 140° |
| 2026-05-03 20:48 | 12.90726 | 66.59319 | 34863 ft | 509 kts | 140° |
| 2026-05-03 20:49 | 12.85212 | 66.63867 | 34862 ft | 509 kts | 140° |
| 2026-05-03 20:49 | 12.79687 | 66.68421 | 34866 ft | 509 kts | 140° |
| 2026-05-03 20:50 | 12.74172 | 66.72964 | 34859 ft | 509 kts | 140° |
| 2026-05-03 20:50 | 12.68654 | 66.77507 | 34864 ft | 509 kts | 140° |
| 2026-05-03 20:51 | 12.63162 | 66.82027 | 34863 ft | 509 kts | 140° |
| 2026-05-03 20:51 | 12.57641 | 66.86567 | 34864 ft | 509 kts | 140° |
| 2026-05-03 20:52 | 12.53007 | 66.90376 | 34867 ft | 509 kts | 140° |
| 2026-05-03 20:52 | 12.47517 | 66.94886 | 34859 ft | 509 kts | 140° |
| 2026-05-03 20:53 | 12.41991 | 66.99424 | 34862 ft | 509 kts | 140° |
| 2026-05-03 20:53 | 12.36460 | 67.03963 | 34859 ft | 509 kts | 140° |
| 2026-05-03 20:54 | 12.30943 | 67.08488 | 34861 ft | 509 kts | 140° |
| 2026-05-03 20:54 | 12.22656 | 67.15279 | 34856 ft | 508 kts | 140° |
| 2026-05-03 20:55 | 12.17130 | 67.19805 | 34856 ft | 509 kts | 140° |
| 2026-05-03 20:55 | 12.11641 | 67.24300 | 34848 ft | 509 kts | 141° |
| 2026-05-03 20:56 | 12.06109 | 67.28825 | 34864 ft | 509 kts | 141° |
| 2026-05-03 20:56 | 12.00574 | 67.33352 | 34846 ft | 510 kts | 141° |
| 2026-05-03 20:57 | 11.95034 | 67.37880 | 34860 ft | 510 kts | 141° |
| 2026-05-03 20:57 | 11.89478 | 67.42417 | 34859 ft | 511 kts | 141° |
| 2026-05-03 20:58 | 11.83926 | 67.46951 | 34867 ft | 511 kts | 141° |
| 2026-05-03 20:58 | 11.78399 | 67.51464 | 34863 ft | 511 kts | 141° |
| 2026-05-03 20:59 | 11.72840 | 67.55999 | 34866 ft | 511 kts | 141° |
| 2026-05-03 20:59 | 11.67273 | 67.60538 | 34861 ft | 512 kts | 141° |
| 2026-05-03 21:00 | 11.62647 | 67.64307 | 34841 ft | 512 kts | 141° |
| 2026-05-03 21:00 | 11.56130 | 67.69615 | 34858 ft | 513 kts | 141° |
| 2026-05-03 21:01 | 11.50552 | 67.74157 | 34853 ft | 513 kts | 141° |
| 2026-05-03 21:01 | 11.45014 | 67.78663 | 34868 ft | 512 kts | 141° |
| 2026-05-03 21:02 | 11.39442 | 67.83194 | 34854 ft | 512 kts | 141° |
| 2026-05-03 21:02 | 11.33859 | 67.87732 | 34849 ft | 512 kts | 141° |
| 2026-05-03 21:03 | 11.28296 | 67.92251 | 34847 ft | 512 kts | 141° |
| 2026-05-03 21:03 | 11.22765 | 67.96742 | 34850 ft | 511 kts | 142° |
| 2026-05-03 21:04 | 11.17204 | 68.01256 | 34856 ft | 511 kts | 142° |
| 2026-05-03 21:04 | 11.11639 | 68.05769 | 34850 ft | 511 kts | 142° |
| 2026-05-03 21:05 | 11.06076 | 68.10280 | 34849 ft | 511 kts | 142° |
| 2026-05-03 21:05 | 11.00514 | 68.14787 | 34852 ft | 511 kts | 142° |
| 2026-05-03 21:06 | 10.94951 | 68.19292 | 34863 ft | 511 kts | 142° |
| 2026-05-03 21:06 | 10.89383 | 68.23800 | 34861 ft | 511 kts | 142° |
| 2026-05-03 21:07 | 10.83819 | 68.28302 | 34860 ft | 511 kts | 142° |
| 2026-05-03 21:07 | 10.78276 | 68.32785 | 34859 ft | 511 kts | 142° |
| 2026-05-03 21:08 | 10.72701 | 68.37291 | 34861 ft | 511 kts | 142° |
| 2026-05-03 21:08 | 10.67129 | 68.41793 | 34861 ft | 511 kts | 142° |
| 2026-05-03 21:09 | 10.61588 | 68.46268 | 34860 ft | 511 kts | 142° |
| 2026-05-03 21:09 | 10.56012 | 68.50769 | 34859 ft | 511 kts | 142° |
| 2026-05-03 21:10 | 10.50440 | 68.55265 | 34857 ft | 511 kts | 142° |
| 2026-05-03 21:10 | 10.44859 | 68.59765 | 34857 ft | 511 kts | 142° |
| 2026-05-03 21:11 | 10.39282 | 68.64261 | 34859 ft | 512 kts | 142° |
| 2026-05-03 21:11 | 10.33696 | 68.68760 | 34863 ft | 512 kts | 142° |
| 2026-05-03 21:12 | 10.28117 | 68.73253 | 34863 ft | 512 kts | 142° |
| 2026-05-03 21:12 | 10.22536 | 68.77746 | 34860 ft | 512 kts | 142° |
| 2026-05-03 21:13 | 10.16990 | 68.82208 | 34859 ft | 512 kts | 142° |
| 2026-05-03 21:13 | 10.11407 | 68.86697 | 34856 ft | 512 kts | 142° |
| 2026-05-03 21:14 | 10.05835 | 68.91176 | 34859 ft | 511 kts | 142° |
| 2026-05-03 21:14 | 10.00252 | 68.95662 | 34857 ft | 511 kts | 142° |
| 2026-05-03 21:15 | 9.94681 | 69.00135 | 34854 ft | 511 kts | 142° |
| 2026-05-03 21:15 | 9.89108 | 69.04609 | 34856 ft | 511 kts | 142° |
| 2026-05-03 21:16 | 9.83537 | 69.09079 | 34858 ft | 511 kts | 142° |
| 2026-05-03 21:16 | 9.77958 | 69.13554 | 34853 ft | 511 kts | 142° |
| 2026-05-03 21:17 | 9.73329 | 69.17265 | 34856 ft | 510 kts | 142° |
| 2026-05-03 21:17 | 9.66816 | 69.22478 | 34854 ft | 510 kts | 142° |
| 2026-05-03 21:18 | 9.61276 | 69.26910 | 34851 ft | 510 kts | 142° |
| 2026-05-03 21:18 | 9.55703 | 69.31369 | 34849 ft | 510 kts | 142° |
| 2026-05-03 21:19 | 9.50130 | 69.35824 | 34852 ft | 510 kts | 142° |
| 2026-05-03 21:19 | 9.44559 | 69.40276 | 34856 ft | 510 kts | 142° |
| 2026-05-03 21:20 | 9.38994 | 69.44721 | 34851 ft | 510 kts | 142° |
| 2026-05-03 21:20 | 9.33422 | 69.49170 | 34852 ft | 510 kts | 142° |
| 2026-05-03 21:21 | 9.27851 | 69.53617 | 34853 ft | 509 kts | 143° |
| 2026-05-03 21:21 | 9.22275 | 69.58065 | 34857 ft | 509 kts | 142° |
| 2026-05-03 21:22 | 9.16757 | 69.62465 | 34862 ft | 508 kts | 142° |
| 2026-05-03 21:22 | 9.11212 | 69.66886 | 34850 ft | 507 kts | 142° |
| 2026-05-03 21:23 | 9.05663 | 69.71307 | 34843 ft | 507 kts | 143° |
| 2026-05-03 21:23 | 9.00124 | 69.75719 | 34847 ft | 506 kts | 142° |
| 2026-05-03 21:24 | 8.94581 | 69.80132 | 34843 ft | 506 kts | 142° |
| 2026-05-03 21:24 | 8.89043 | 69.84540 | 34842 ft | 506 kts | 142° |
| 2026-05-03 21:25 | 8.83505 | 69.88945 | 34863 ft | 506 kts | 142° |
| 2026-05-03 21:25 | 8.78008 | 69.93317 | 34853 ft | 506 kts | 142° |
| 2026-05-03 21:26 | 8.72472 | 69.97718 | 34855 ft | 505 kts | 142° |
| 2026-05-03 21:26 | 8.66940 | 70.02114 | 34847 ft | 505 kts | 142° |
| 2026-05-03 21:27 | 8.61409 | 70.06507 | 34850 ft | 505 kts | 142° |
| 2026-05-03 21:27 | 8.55908 | 70.10875 | 34850 ft | 505 kts | 142° |
| 2026-05-03 21:28 | 8.50388 | 70.15256 | 34860 ft | 504 kts | 142° |
| 2026-05-03 21:28 | 8.44882 | 70.19625 | 34856 ft | 503 kts | 142° |
| 2026-05-03 21:29 | 8.39390 | 70.23982 | 34859 ft | 501 kts | 143° |
| 2026-05-03 21:29 | 8.33910 | 70.28326 | 34849 ft | 500 kts | 142° |
| 2026-05-03 21:30 | 8.28441 | 70.32661 | 34850 ft | 499 kts | 142° |
| 2026-05-03 21:30 | 8.22974 | 70.36991 | 34831 ft | 499 kts | 142° |
| 2026-05-03 21:31 | 8.17535 | 70.41298 | 34810 ft | 500 kts | 142° |
| 2026-05-03 21:31 | 8.12049 | 70.45642 | 34822 ft | 501 kts | 142° |
| 2026-05-03 21:32 | 8.06555 | 70.49991 | 34830 ft | 503 kts | 142° |
| 2026-05-03 21:32 | 8.01033 | 70.54359 | 34843 ft | 504 kts | 142° |
| 2026-05-03 21:33 | 7.95519 | 70.58720 | 34872 ft | 503 kts | 142° |
| 2026-05-03 21:33 | 7.90006 | 70.63078 | 34863 ft | 503 kts | 142° |
| 2026-05-03 21:34 | 7.84530 | 70.67405 | 34856 ft | 502 kts | 142° |
| 2026-05-03 21:34 | 7.79030 | 70.71750 | 34852 ft | 502 kts | 142° |
| 2026-05-03 21:35 | 7.73538 | 70.76088 | 34840 ft | 501 kts | 142° |
| 2026-05-03 21:35 | 7.68051 | 70.80420 | 34834 ft | 501 kts | 142° |
| 2026-05-03 21:36 | 7.62565 | 70.84750 | 34844 ft | 500 kts | 142° |
| 2026-05-03 21:36 | 7.57079 | 70.89078 | 34836 ft | 500 kts | 142° |
| 2026-05-03 21:37 | 7.51768 | 70.93593 | 34841 ft | 499 kts | 135° |
| 2026-05-03 21:37 | 7.47351 | 70.98921 | 34837 ft | 499 kts | 124° |
| 2026-05-03 21:38 | 7.43631 | 71.04834 | 34835 ft | 500 kts | 122° |
| 2026-05-03 21:38 | 7.39919 | 71.10746 | 34833 ft | 500 kts | 122° |
| 2026-05-03 21:39 | 7.36195 | 71.16677 | 34837 ft | 501 kts | 122° |
| 2026-05-03 21:39 | 7.32476 | 71.22605 | 34847 ft | 501 kts | 122° |
| 2026-05-03 21:40 | 7.28752 | 71.28540 | 34838 ft | 501 kts | 122° |
| 2026-05-03 21:40 | 7.25654 | 71.33477 | 34846 ft | 501 kts | 122° |
| 2026-05-03 21:41 | 7.21929 | 71.39408 | 34846 ft | 501 kts | 122° |
| 2026-05-03 21:41 | 7.18209 | 71.45328 | 34851 ft | 500 kts | 122° |
| 2026-05-03 21:42 | 7.14489 | 71.51248 | 34841 ft | 499 kts | 122° |
| 2026-05-03 21:42 | 7.10776 | 71.57153 | 34848 ft | 498 kts | 122° |
| 2026-05-03 21:43 | 7.07075 | 71.63039 | 34854 ft | 497 kts | 122° |
| 2026-05-03 21:43 | 7.03375 | 71.68919 | 34825 ft | 497 kts | 122° |
| 2026-05-03 21:44 | 6.99707 | 71.74746 | 34839 ft | 495 kts | 122° |
| 2026-05-03 21:44 | 6.95994 | 71.80642 | 34823 ft | 496 kts | 122° |
| 2026-05-03 21:45 | 6.92325 | 71.86468 | 34828 ft | 495 kts | 122° |
| 2026-05-03 21:45 | 6.88635 | 71.92324 | 34835 ft | 495 kts | 122° |
| 2026-05-03 21:46 | 6.84944 | 71.98179 | 34837 ft | 495 kts | 122° |
| 2026-05-03 21:46 | 6.81247 | 72.04043 | 34834 ft | 495 kts | 122° |
| 2026-05-03 21:47 | 6.77575 | 72.09865 | 34838 ft | 495 kts | 122° |
| 2026-05-03 21:47 | 6.73882 | 72.15719 | 34839 ft | 495 kts | 122° |
| 2026-05-03 21:48 | 6.70185 | 72.21576 | 34839 ft | 496 kts | 122° |
| 2026-05-03 21:48 | 6.66486 | 72.27435 | 34840 ft | 495 kts | 122° |
| 2026-05-03 21:49 | 6.62791 | 72.33285 | 34842 ft | 495 kts | 122° |
| 2026-05-03 21:49 | 6.59097 | 72.39131 | 34840 ft | 495 kts | 122° |
| 2026-05-03 21:50 | 6.55399 | 72.44982 | 34840 ft | 495 kts | 122° |
| 2026-05-03 21:50 | 6.51700 | 72.50833 | 34838 ft | 495 kts | 122° |
| 2026-05-03 21:51 | 6.48030 | 72.56636 | 34837 ft | 495 kts | 122° |
| 2026-05-03 21:51 | 6.44331 | 72.62483 | 34832 ft | 496 kts | 123° |
| 2026-05-03 21:52 | 6.40628 | 72.68334 | 34840 ft | 495 kts | 123° |
| 2026-05-03 21:52 | 6.36924 | 72.74185 | 34835 ft | 496 kts | 123° |
| 2026-05-03 21:53 | 6.33221 | 72.80032 | 34837 ft | 496 kts | 123° |
| 2026-05-03 21:53 | 6.29516 | 72.85880 | 34838 ft | 496 kts | 123° |
| 2026-05-03 21:54 | 6.25809 | 72.91730 | 34839 ft | 496 kts | 123° |
| 2026-05-03 21:54 | 6.22103 | 72.97577 | 34840 ft | 496 kts | 122° |
| 2026-05-03 21:55 | 6.18396 | 73.03423 | 34837 ft | 496 kts | 122° |
| 2026-05-03 21:55 | 6.14689 | 73.09269 | 34846 ft | 495 kts | 122° |
| 2026-05-03 21:56 | 6.11001 | 73.15081 | 34832 ft | 496 kts | 122° |
| 2026-05-03 21:56 | 6.07292 | 73.20925 | 34842 ft | 496 kts | 122° |
| 2026-05-03 21:57 | 6.03581 | 73.26770 | 34842 ft | 496 kts | 122° |
| 2026-05-03 21:57 | 5.99867 | 73.32618 | 34844 ft | 496 kts | 122° |
| 2026-05-03 21:58 | 5.96160 | 73.38454 | 34835 ft | 496 kts | 122° |
| 2026-05-03 21:58 | 5.92451 | 73.44292 | 34833 ft | 496 kts | 122° |
| 2026-05-03 21:59 | 5.88746 | 73.50121 | 34846 ft | 495 kts | 122° |
| 2026-05-03 21:59 | 5.85057 | 73.55923 | 34830 ft | 495 kts | 122° |
| 2026-05-03 22:00 | 5.81347 | 73.61756 | 34852 ft | 494 kts | 122° |
| 2026-05-03 22:00 | 5.77644 | 73.67577 | 34851 ft | 493 kts | 122° |
| 2026-05-03 22:01 | 5.73948 | 73.73384 | 34840 ft | 493 kts | 122° |
| 2026-05-03 22:01 | 5.70282 | 73.79144 | 34832 ft | 492 kts | 122° |
| 2026-05-03 22:02 | 5.66589 | 73.84944 | 34828 ft | 492 kts | 122° |
| 2026-05-03 22:02 | 5.62902 | 73.90733 | 34835 ft | 492 kts | 122° |
| 2026-05-03 22:03 | 5.59213 | 73.96523 | 34825 ft | 492 kts | 122° |
| 2026-05-03 22:03 | 5.55522 | 74.02315 | 34832 ft | 492 kts | 122° |
| 2026-05-03 22:04 | 5.51828 | 74.08110 | 34836 ft | 492 kts | 122° |
| 2026-05-03 22:04 | 5.48156 | 74.13869 | 34846 ft | 493 kts | 122° |
| 2026-05-03 22:05 | 5.44458 | 74.19668 | 34845 ft | 493 kts | 122° |
| 2026-05-03 22:05 | 5.40763 | 74.25459 | 34837 ft | 493 kts | 122° |
| 2026-05-03 22:06 | 5.37070 | 74.31246 | 34853 ft | 492 kts | 122° |
| 2026-05-03 22:06 | 5.33380 | 74.37027 | 34829 ft | 493 kts | 122° |
| 2026-05-03 22:07 | 5.29679 | 74.42823 | 34835 ft | 493 kts | 122° |
| 2026-05-03 22:07 | 5.25984 | 74.48609 | 34841 ft | 493 kts | 122° |
| 2026-05-03 22:08 | 5.22278 | 74.54411 | 34845 ft | 493 kts | 122° |
| 2026-05-03 22:08 | 5.18583 | 74.60194 | 34847 ft | 493 kts | 122° |
| 2026-05-03 22:09 | 5.14897 | 74.65961 | 34832 ft | 494 kts | 122° |
| 2026-05-03 22:10 | 5.09339 | 74.74653 | 34840 ft | 494 kts | 122° |
| 2026-05-03 22:10 | 5.05634 | 74.80446 | 34837 ft | 494 kts | 122° |
| 2026-05-03 22:11 | 5.01922 | 74.86249 | 34861 ft | 493 kts | 122° |
| 2026-05-03 22:11 | 4.98215 | 74.92043 | 34833 ft | 494 kts | 122° |
| 2026-05-03 22:12 | 4.94505 | 74.97838 | 34844 ft | 493 kts | 122° |
| 2026-05-03 22:12 | 4.90796 | 75.03631 | 34848 ft | 493 kts | 122° |
| 2026-05-03 22:13 | 4.87112 | 75.09384 | 34848 ft | 494 kts | 122° |
| 2026-05-03 22:13 | 4.83402 | 75.15178 | 34849 ft | 494 kts | 122° |
| 2026-05-03 22:14 | 4.79687 | 75.20976 | 34838 ft | 494 kts | 122° |
| 2026-05-03 22:14 | 4.75961 | 75.26790 | 34822 ft | 496 kts | 122° |
| 2026-05-03 22:15 | 4.72226 | 75.32618 | 34827 ft | 497 kts | 122° |
| 2026-05-03 22:15 | 4.68475 | 75.38469 | 34843 ft | 499 kts | 122° |
| 2026-05-03 22:16 | 4.64739 | 75.44293 | 34850 ft | 500 kts | 122° |
| 2026-05-03 22:16 | 4.60975 | 75.50162 | 34861 ft | 501 kts | 122° |
| 2026-05-03 22:17 | 4.57206 | 75.56036 | 34871 ft | 500 kts | 122° |
| 2026-05-03 22:17 | 4.53438 | 75.61907 | 34859 ft | 500 kts | 122° |
| 2026-05-03 22:18 | 4.49675 | 75.67771 | 34857 ft | 500 kts | 122° |
| 2026-05-03 22:18 | 4.45913 | 75.73630 | 34850 ft | 499 kts | 122° |
| 2026-05-03 22:19 | 4.42184 | 75.79437 | 34864 ft | 498 kts | 122° |
| 2026-05-03 22:19 | 4.38436 | 75.85271 | 34861 ft | 497 kts | 122° |
| 2026-05-03 22:20 | 4.34696 | 75.91093 | 34833 ft | 497 kts | 122° |
| 2026-05-03 22:20 | 4.30961 | 75.96904 | 34855 ft | 495 kts | 122° |
| 2026-05-03 22:21 | 4.27237 | 76.02700 | 34832 ft | 495 kts | 122° |
| 2026-05-03 22:21 | 4.23508 | 76.08499 | 34828 ft | 495 kts | 122° |
| 2026-05-03 22:22 | 4.19781 | 76.14297 | 34833 ft | 495 kts | 122° |
| 2026-05-03 22:22 | 4.16049 | 76.20098 | 34843 ft | 495 kts | 122° |
| 2026-05-03 22:23 | 4.12317 | 76.25899 | 34860 ft | 495 kts | 122° |
| 2026-05-03 22:23 | 4.08587 | 76.31698 | 34846 ft | 495 kts | 122° |
| 2026-05-03 22:24 | 4.04876 | 76.37463 | 34848 ft | 495 kts | 122° |
| 2026-05-03 22:24 | 4.01144 | 76.43262 | 34849 ft | 495 kts | 122° |
| 2026-05-03 22:25 | 3.97415 | 76.49054 | 34856 ft | 495 kts | 121° |
| 2026-05-03 22:25 | 3.93683 | 76.54849 | 34848 ft | 496 kts | 122° |
| 2026-05-03 22:26 | 3.89940 | 76.60662 | 34821 ft | 497 kts | 122° |
| 2026-05-03 22:26 | 3.86187 | 76.66488 | 34856 ft | 497 kts | 122° |
| 2026-05-03 22:27 | 3.82432 | 76.72315 | 34857 ft | 498 kts | 122° |
| 2026-05-03 22:27 | 3.78668 | 76.78156 | 34863 ft | 499 kts | 122° |
| 2026-05-03 22:28 | 3.74909 | 76.83988 | 34867 ft | 499 kts | 122° |
| 2026-05-03 22:28 | 3.71173 | 76.89785 | 34855 ft | 499 kts | 122° |
| 2026-05-03 22:29 | 3.67413 | 76.95614 | 34887 ft | 496 kts | 122° |
| 2026-05-03 22:29 | 3.63669 | 77.01421 | 34864 ft | 496 kts | 122° |
| 2026-05-03 22:30 | 3.59925 | 77.07224 | 34856 ft | 495 kts | 122° |
| 2026-05-03 22:30 | 3.56822 | 77.12034 | 34866 ft | 494 kts | 122° |
| 2026-05-03 22:31 | 3.53091 | 77.17816 | 34817 ft | 495 kts | 122° |
| 2026-05-03 22:31 | 3.48757 | 77.24532 | 34868 ft | 493 kts | 122° |
| 2026-05-03 22:32 | 3.45636 | 77.29366 | 34862 ft | 492 kts | 122° |
| 2026-05-03 22:32 | 3.41941 | 77.35091 | 34857 ft | 492 kts | 122° |
| 2026-05-03 22:33 | 3.38201 | 77.40882 | 34853 ft | 492 kts | 122° |
| 2026-05-03 22:33 | 3.34508 | 77.46601 | 34841 ft | 493 kts | 122° |
| 2026-05-03 22:34 | 3.30786 | 77.52363 | 34854 ft | 492 kts | 122° |
| 2026-05-03 22:34 | 3.27069 | 77.58116 | 34855 ft | 492 kts | 122° |
| 2026-05-03 22:35 | 3.23340 | 77.63889 | 34862 ft | 493 kts | 122° |
| 2026-05-03 22:35 | 3.19644 | 77.69608 | 34870 ft | 493 kts | 122° |
| 2026-05-03 22:36 | 3.15920 | 77.75371 | 34847 ft | 494 kts | 122° |
| 2026-05-03 22:36 | 3.12192 | 77.81138 | 34881 ft | 492 kts | 122° |
| 2026-05-03 22:37 | 3.08467 | 77.86900 | 34865 ft | 493 kts | 122° |
| 2026-05-03 22:37 | 3.04745 | 77.92656 | 34869 ft | 493 kts | 122° |
| 2026-05-03 22:38 | 3.01021 | 77.98416 | 34851 ft | 493 kts | 123° |
| 2026-05-03 22:38 | 2.96861 | 78.03868 | 34838 ft | 494 kts | 129° |
| 2026-05-03 22:39 | 2.92532 | 78.09209 | 34852 ft | 494 kts | 128° |
| 2026-05-03 22:39 | 2.88215 | 78.14554 | 34865 ft | 493 kts | 128° |
| 2026-05-03 22:40 | 2.83924 | 78.19862 | 34853 ft | 494 kts | 128° |
| 2026-05-03 22:40 | 2.79596 | 78.25209 | 34871 ft | 494 kts | 128° |
| 2026-05-03 22:41 | 2.75272 | 78.30552 | 34887 ft | 493 kts | 128° |
| 2026-05-03 22:41 | 2.70953 | 78.35889 | 34868 ft | 493 kts | 128° |
| 2026-05-03 22:42 | 2.66630 | 78.41230 | 34849 ft | 494 kts | 128° |
| 2026-05-03 22:42 | 2.62307 | 78.46568 | 34864 ft | 493 kts | 128° |
| 2026-05-03 22:43 | 2.57991 | 78.51897 | 34849 ft | 493 kts | 128° |
| 2026-05-03 22:43 | 2.53708 | 78.57188 | 34833 ft | 493 kts | 128° |
| 2026-05-03 22:44 | 2.49390 | 78.62518 | 34855 ft | 493 kts | 128° |
| 2026-05-03 22:44 | 2.45077 | 78.67842 | 34864 ft | 492 kts | 127° |
| 2026-05-03 22:45 | 2.40762 | 78.73168 | 34842 ft | 493 kts | 128° |
| 2026-05-03 22:45 | 2.36440 | 78.78503 | 34857 ft | 494 kts | 127° |
| 2026-05-03 22:46 | 2.32109 | 78.83848 | 34883 ft | 494 kts | 127° |
| 2026-05-03 22:46 | 2.27777 | 78.89194 | 34856 ft | 495 kts | 127° |
| 2026-05-03 22:47 | 2.23441 | 78.94543 | 34875 ft | 495 kts | 128° |
| 2026-05-03 22:47 | 2.19146 | 78.99841 | 34876 ft | 494 kts | 127° |
| 2026-05-03 22:48 | 2.14828 | 79.05167 | 34871 ft | 493 kts | 127° |
| 2026-05-03 22:48 | 2.10513 | 79.10493 | 34848 ft | 493 kts | 128° |
| 2026-05-03 22:49 | 2.06198 | 79.15813 | 34877 ft | 491 kts | 128° |
| 2026-05-03 22:49 | 2.01886 | 79.21130 | 34865 ft | 491 kts | 128° |
| 2026-05-03 22:50 | 1.97586 | 79.26431 | 34870 ft | 491 kts | 128° |
| 2026-05-03 22:50 | 1.93276 | 79.31747 | 34842 ft | 493 kts | 128° |
| 2026-05-03 22:51 | 1.88984 | 79.37039 | 34860 ft | 492 kts | 128° |
| 2026-05-03 22:51 | 1.84671 | 79.42356 | 34858 ft | 492 kts | 128° |
| 2026-05-03 22:52 | 1.80344 | 79.47691 | 34841 ft | 494 kts | 128° |
| 2026-05-03 22:52 | 1.76007 | 79.53035 | 34861 ft | 495 kts | 128° |
| 2026-05-03 22:53 | 1.71690 | 79.58354 | 34887 ft | 496 kts | 128° |
| 2026-05-03 22:53 | 1.67337 | 79.63719 | 34886 ft | 497 kts | 128° |
| 2026-05-03 22:54 | 1.62969 | 79.69102 | 34885 ft | 498 kts | 128° |
| 2026-05-03 22:54 | 1.58598 | 79.74487 | 34900 ft | 498 kts | 128° |
| 2026-05-03 22:55 | 1.54228 | 79.79872 | 34866 ft | 498 kts | 128° |
| 2026-05-03 22:55 | 1.49889 | 79.85218 | 34860 ft | 499 kts | 128° |
| 2026-05-03 22:56 | 1.45505 | 79.90617 | 34859 ft | 500 kts | 128° |
| 2026-05-03 22:56 | 1.41108 | 79.96033 | 34868 ft | 501 kts | 128° |
| 2026-05-03 22:57 | 1.36709 | 80.01452 | 34880 ft | 502 kts | 128° |
| 2026-05-03 22:57 | 1.32302 | 80.06881 | 34869 ft | 503 kts | 128° |
| 2026-05-03 22:58 | 1.27899 | 80.12302 | 34883 ft | 503 kts | 128° |
| 2026-05-03 22:58 | 1.23514 | 80.17703 | 34863 ft | 503 kts | 128° |
| 2026-05-03 22:59 | 1.19095 | 80.23145 | 34863 ft | 504 kts | 128° |
| 2026-05-03 22:59 | 1.14675 | 80.28587 | 34867 ft | 504 kts | 128° |
| 2026-05-03 23:00 | 1.10241 | 80.34044 | 34859 ft | 506 kts | 127° |
| 2026-05-03 23:00 | 1.05806 | 80.39507 | 34865 ft | 506 kts | 128° |
| 2026-05-03 23:01 | 1.01361 | 80.44980 | 34880 ft | 507 kts | 127° |
| 2026-05-03 23:01 | 0.96912 | 80.50456 | 34875 ft | 507 kts | 127° |
| 2026-05-03 23:02 | 0.92484 | 80.55909 | 34857 ft | 508 kts | 128° |
| 2026-05-03 23:02 | 0.88026 | 80.61396 | 34867 ft | 509 kts | 128° |
| 2026-05-03 23:03 | 0.83557 | 80.66897 | 34862 ft | 509 kts | 128° |
| 2026-05-03 23:03 | 0.79110 | 80.72370 | 34858 ft | 510 kts | 127° |
| 2026-05-03 23:04 | 0.74641 | 80.77871 | 34870 ft | 510 kts | 128° |
| 2026-05-03 23:04 | 0.70173 | 80.83370 | 34882 ft | 509 kts | 127° |
| 2026-05-03 23:05 | 0.65713 | 80.88859 | 34875 ft | 508 kts | 127° |
| 2026-05-03 23:05 | 0.61258 | 80.94344 | 34841 ft | 508 kts | 128° |
| 2026-05-03 23:06 | 0.56809 | 80.99819 | 34849 ft | 508 kts | 128° |
| 2026-05-03 23:06 | 0.52350 | 81.05306 | 34847 ft | 508 kts | 128° |
| 2026-05-03 23:07 | 0.47891 | 81.10793 | 34839 ft | 509 kts | 128° |
| 2026-05-03 23:07 | 0.43426 | 81.16288 | 34860 ft | 509 kts | 128° |
| 2026-05-03 23:08 | 0.38956 | 81.21789 | 34867 ft | 509 kts | 128° |
| 2026-05-03 23:08 | 0.34514 | 81.27254 | 34869 ft | 509 kts | 128° |
| 2026-05-03 23:09 | 0.30035 | 81.32766 | 34831 ft | 511 kts | 128° |
| 2026-05-03 23:09 | 0.25550 | 81.38285 | 34848 ft | 512 kts | 128° |
| 2026-05-03 23:10 | 0.21061 | 81.43808 | 34865 ft | 512 kts | 128° |
| 2026-05-03 23:10 | 0.16564 | 81.49342 | 34853 ft | 513 kts | 128° |
| 2026-05-03 23:11 | 0.12064 | 81.54880 | 34876 ft | 513 kts | 128° |
| 2026-05-03 23:11 | 0.07557 | 81.60426 | 34876 ft | 513 kts | 128° |
| 2026-05-03 23:12 | 0.03062 | 81.65955 | 34852 ft | 513 kts | 128° |
| 2026-05-03 23:12 | -0.01433 | 81.71485 | 34862 ft | 512 kts | 128° |
| 2026-05-03 23:13 | -0.05885 | 81.76964 | 34861 ft | 511 kts | 128° |
| 2026-05-03 23:13 | -0.10365 | 81.82476 | 34859 ft | 510 kts | 128° |
| 2026-05-03 23:14 | -0.14836 | 81.87978 | 34854 ft | 509 kts | 128° |
| 2026-05-03 23:14 | -0.19307 | 81.93479 | 34839 ft | 509 kts | 128° |
| 2026-05-03 23:15 | -0.23775 | 81.98977 | 34833 ft | 509 kts | 128° |
| 2026-05-03 23:15 | -0.28243 | 82.04476 | 34843 ft | 509 kts | 128° |
| 2026-05-03 23:16 | -0.32683 | 82.09939 | 34835 ft | 509 kts | 128° |
| 2026-05-03 23:16 | -0.37160 | 82.15448 | 34851 ft | 510 kts | 128° |
| 2026-05-03 23:17 | -0.41632 | 82.20951 | 34853 ft | 510 kts | 128° |
| 2026-05-03 23:17 | -0.46098 | 82.26447 | 34852 ft | 509 kts | 128° |
| 2026-05-03 23:18 | -0.50566 | 82.31945 | 34847 ft | 509 kts | 128° |
| 2026-05-03 23:18 | -0.55031 | 82.37441 | 34851 ft | 509 kts | 128° |
| 2026-05-03 23:19 | -0.59470 | 82.42903 | 34862 ft | 508 kts | 128° |
| 2026-05-03 23:19 | -0.63929 | 82.48390 | 34854 ft | 508 kts | 128° |
| 2026-05-03 23:20 | -0.68387 | 82.53878 | 34846 ft | 507 kts | 128° |
| 2026-05-03 23:20 | -0.72080 | 82.58423 | 34846 ft | 507 kts | 127° |
| 2026-05-03 23:21 | -0.76525 | 82.63895 | 34848 ft | 506 kts | 128° |
| 2026-05-03 23:21 | -0.81684 | 82.70244 | 34846 ft | 506 kts | 128° |
| 2026-05-03 23:22 | -0.87594 | 82.77518 | 34845 ft | 506 kts | 128° |
| 2026-05-03 23:22 | -0.92039 | 82.82992 | 34849 ft | 506 kts | 128° |
| 2026-05-03 23:23 | -0.96486 | 82.88465 | 34845 ft | 506 kts | 128° |
| 2026-05-03 23:23 | -1.00898 | 82.93896 | 34845 ft | 506 kts | 128° |
| 2026-05-03 23:24 | -1.05345 | 82.99372 | 34851 ft | 507 kts | 128° |
| 2026-05-03 23:24 | -1.09788 | 83.04842 | 34854 ft | 507 kts | 128° |
| 2026-05-03 23:25 | -1.14231 | 83.10312 | 34858 ft | 507 kts | 127° |
| 2026-05-03 23:25 | -1.18662 | 83.15769 | 34862 ft | 505 kts | 127° |
| 2026-05-03 23:26 | -1.23063 | 83.21188 | 34858 ft | 504 kts | 127° |
| 2026-05-03 23:26 | -1.27482 | 83.26630 | 34851 ft | 504 kts | 128° |
| 2026-05-03 23:27 | -1.31901 | 83.32072 | 34840 ft | 503 kts | 128° |
| 2026-05-03 23:27 | -1.36314 | 83.37508 | 34840 ft | 503 kts | 127° |
| 2026-05-03 23:28 | -1.40718 | 83.42933 | 34840 ft | 503 kts | 127° |
| 2026-05-03 23:28 | -1.45132 | 83.48370 | 34842 ft | 503 kts | 128° |
| 2026-05-03 23:29 | -1.49517 | 83.53772 | 34848 ft | 503 kts | 128° |
| 2026-05-03 23:29 | -1.53934 | 83.59213 | 34846 ft | 504 kts | 128° |
| 2026-05-03 23:30 | -1.58353 | 83.64657 | 34851 ft | 504 kts | 128° |
| 2026-05-03 23:30 | -1.62777 | 83.70110 | 34855 ft | 505 kts | 128° |
| 2026-05-03 23:31 | -1.67205 | 83.75566 | 34853 ft | 505 kts | 128° |
| 2026-05-03 23:31 | -1.71602 | 83.80984 | 34853 ft | 505 kts | 128° |
| 2026-05-03 23:32 | -1.76030 | 83.86442 | 34854 ft | 505 kts | 128° |
| 2026-05-03 23:32 | -1.80465 | 83.91907 | 34840 ft | 505 kts | 128° |
| 2026-05-03 23:33 | -1.84893 | 83.97366 | 34839 ft | 506 kts | 128° |
| 2026-05-03 23:33 | -1.89332 | 84.02838 | 34844 ft | 507 kts | 128° |
| 2026-05-03 23:34 | -1.93776 | 84.08316 | 34852 ft | 507 kts | 128° |
| 2026-05-03 23:34 | -1.98198 | 84.13767 | 34855 ft | 508 kts | 128° |
| 2026-05-03 23:35 | -2.02822 | 84.19120 | 34854 ft | 509 kts | 131° |
| 2026-05-03 23:35 | -2.07569 | 84.24377 | 34854 ft | 509 kts | 130° |
| 2026-05-03 23:36 | -2.12309 | 84.29636 | 34855 ft | 509 kts | 130° |
| 2026-05-03 23:36 | -2.17050 | 84.34894 | 34853 ft | 509 kts | 130° |
| 2026-05-03 23:37 | -2.21787 | 84.40146 | 34854 ft | 509 kts | 130° |
| 2026-05-03 23:37 | -2.26525 | 84.45401 | 34853 ft | 509 kts | 130° |
| 2026-05-03 23:38 | -2.31242 | 84.50631 | 34854 ft | 508 kts | 130° |
| 2026-05-03 23:38 | -2.35977 | 84.55884 | 34852 ft | 508 kts | 130° |
| 2026-05-03 23:39 | -2.40715 | 84.61139 | 34850 ft | 508 kts | 130° |
| 2026-05-03 23:39 | -2.45447 | 84.66389 | 34850 ft | 508 kts | 130° |
| 2026-05-03 23:40 | -2.50188 | 84.71650 | 34848 ft | 508 kts | 130° |
| 2026-05-03 23:40 | -2.54890 | 84.76867 | 34851 ft | 508 kts | 130° |
| 2026-05-03 23:41 | -2.59623 | 84.82121 | 34848 ft | 509 kts | 130° |
| 2026-05-03 23:41 | -2.64367 | 84.87386 | 34848 ft | 509 kts | 130° |
| 2026-05-03 23:42 | -2.69109 | 84.92649 | 34861 ft | 508 kts | 130° |
| 2026-05-03 23:42 | -2.73839 | 84.97901 | 34857 ft | 508 kts | 130° |
| 2026-05-03 23:43 | -2.78542 | 85.03123 | 34854 ft | 507 kts | 130° |
| 2026-05-03 23:43 | -2.83260 | 85.08362 | 34860 ft | 506 kts | 130° |
| 2026-05-03 23:44 | -2.87975 | 85.13600 | 34849 ft | 506 kts | 130° |
| 2026-05-03 23:44 | -2.92685 | 85.18832 | 34847 ft | 505 kts | 130° |
| 2026-05-03 23:45 | -2.97384 | 85.24052 | 34847 ft | 505 kts | 130° |
| 2026-05-03 23:45 | -3.02085 | 85.29275 | 34845 ft | 505 kts | 130° |
| 2026-05-03 23:46 | -3.06777 | 85.34489 | 34853 ft | 504 kts | 130° |
| 2026-05-03 23:46 | -3.11472 | 85.39707 | 34849 ft | 504 kts | 130° |
| 2026-05-03 23:47 | -3.16158 | 85.44917 | 34848 ft | 504 kts | 130° |
| 2026-05-03 23:47 | -3.20845 | 85.50128 | 34847 ft | 504 kts | 130° |
| 2026-05-03 23:48 | -3.25506 | 85.55310 | 34845 ft | 504 kts | 130° |
| 2026-05-03 23:48 | -3.30196 | 85.60526 | 34846 ft | 504 kts | 130° |
| 2026-05-03 23:49 | -3.34887 | 85.65743 | 34846 ft | 504 kts | 130° |
| 2026-05-03 23:49 | -3.39573 | 85.70957 | 34851 ft | 504 kts | 130° |
| 2026-05-03 23:50 | -3.43469 | 85.75291 | 34853 ft | 504 kts | 130° |
| 2026-05-03 23:50 | -3.48960 | 85.81401 | 34854 ft | 504 kts | 130° |
| 2026-05-03 23:51 | -3.53645 | 85.86616 | 34852 ft | 504 kts | 130° |
| 2026-05-03 23:51 | -3.58305 | 85.91803 | 34852 ft | 504 kts | 130° |
| 2026-05-03 23:52 | -3.63025 | 85.97057 | 34857 ft | 504 kts | 130° |
| 2026-05-03 23:52 | -3.67679 | 86.02240 | 34857 ft | 504 kts | 130° |
| 2026-05-03 23:53 | -3.72366 | 86.07460 | 34852 ft | 504 kts | 130° |
| 2026-05-03 23:53 | -3.77056 | 86.12683 | 34854 ft | 504 kts | 130° |
| 2026-05-03 23:54 | -3.81743 | 86.17905 | 34857 ft | 504 kts | 130° |
| 2026-05-03 23:54 | -3.86419 | 86.23116 | 34859 ft | 503 kts | 130° |
| 2026-05-03 23:55 | -3.91095 | 86.28327 | 34856 ft | 503 kts | 130° |
| 2026-05-03 23:55 | -3.95771 | 86.33540 | 34855 ft | 502 kts | 130° |
| 2026-05-03 23:56 | -4.00439 | 86.38744 | 34852 ft | 502 kts | 130° |
| 2026-05-03 23:56 | -4.05075 | 86.43913 | 34848 ft | 502 kts | 130° |
| 2026-05-03 23:57 | -4.09744 | 86.49121 | 34846 ft | 502 kts | 130° |
| 2026-05-03 23:57 | -4.14407 | 86.54322 | 34847 ft | 502 kts | 130° |
| 2026-05-03 23:58 | -4.19075 | 86.59531 | 34864 ft | 502 kts | 130° |
| 2026-05-03 23:58 | -4.23740 | 86.64737 | 34859 ft | 501 kts | 130° |
| 2026-05-03 23:59 | -4.28393 | 86.69930 | 34856 ft | 501 kts | 130° |
| 2026-05-03 23:59 | -4.33045 | 86.75123 | 34854 ft | 501 kts | 130° |
| 2026-05-04 00:00 | -4.37701 | 86.80322 | 34859 ft | 500 kts | 130° |
| 2026-05-04 00:00 | -4.42351 | 86.85516 | 34857 ft | 500 kts | 130° |
| 2026-05-04 00:01 | -4.47000 | 86.90709 | 34853 ft | 500 kts | 130° |
| 2026-05-04 00:01 | -4.51654 | 86.95908 | 34856 ft | 501 kts | 130° |
| 2026-05-04 00:02 | -4.56308 | 87.01109 | 34861 ft | 501 kts | 130° |
| 2026-05-04 00:02 | -4.60960 | 87.06309 | 34867 ft | 500 kts | 130° |
| 2026-05-04 00:03 | -4.65577 | 87.11471 | 34865 ft | 500 kts | 130° |
| 2026-05-04 00:03 | -4.70224 | 87.16667 | 34863 ft | 500 kts | 130° |
| 2026-05-04 00:04 | -4.74865 | 87.21858 | 34863 ft | 500 kts | 130° |
| 2026-05-04 00:04 | -4.79501 | 87.27044 | 34862 ft | 499 kts | 130° |
| 2026-05-04 00:05 | -4.84139 | 87.32235 | 34863 ft | 499 kts | 130° |
| 2026-05-04 00:05 | -4.88782 | 87.37431 | 34854 ft | 500 kts | 130° |
| 2026-05-04 00:06 | -4.93401 | 87.42601 | 34865 ft | 500 kts | 130° |
| 2026-05-04 00:06 | -4.98050 | 87.47806 | 34867 ft | 501 kts | 130° |
| 2026-05-04 00:07 | -5.02709 | 87.53001 | 34870 ft | 502 kts | 131° |
| 2026-05-04 00:07 | -5.07421 | 87.58177 | 34873 ft | 502 kts | 131° |
| 2026-05-04 00:08 | -5.12129 | 87.63354 | 34875 ft | 502 kts | 131° |
| 2026-05-04 00:08 | -5.16833 | 87.68534 | 34875 ft | 502 kts | 131° |
| 2026-05-04 00:09 | -5.21538 | 87.73719 | 34871 ft | 502 kts | 131° |
| 2026-05-04 00:09 | -5.25452 | 87.78033 | 34871 ft | 502 kts | 131° |
| 2026-05-04 00:10 | -5.30156 | 87.83218 | 34875 ft | 502 kts | 131° |
| 2026-05-04 00:10 | -5.34870 | 87.88416 | 34873 ft | 503 kts | 131° |
| 2026-05-04 00:11 | -5.39579 | 87.93611 | 34872 ft | 503 kts | 131° |
| 2026-05-04 00:11 | -5.44288 | 87.98807 | 34873 ft | 503 kts | 131° |
| 2026-05-04 00:12 | -5.49002 | 88.04009 | 34883 ft | 503 kts | 131° |
| 2026-05-04 00:12 | -5.53681 | 88.09173 | 34882 ft | 503 kts | 131° |
| 2026-05-04 00:13 | -5.58396 | 88.14381 | 34882 ft | 503 kts | 131° |
| 2026-05-04 00:13 | -5.63103 | 88.19578 | 34883 ft | 503 kts | 131° |
| 2026-05-04 00:14 | -5.67819 | 88.24789 | 34882 ft | 503 kts | 131° |
| 2026-05-04 00:14 | -5.72523 | 88.29988 | 34877 ft | 503 kts | 131° |
| 2026-05-04 00:15 | -5.77202 | 88.35159 | 34880 ft | 503 kts | 131° |
| 2026-05-04 00:15 | -5.81911 | 88.40365 | 34883 ft | 503 kts | 131° |
| 2026-05-04 00:16 | -5.86614 | 88.45566 | 34885 ft | 503 kts | 131° |
| 2026-05-04 00:16 | -5.91325 | 88.50779 | 34877 ft | 504 kts | 131° |
| 2026-05-04 00:17 | -5.96035 | 88.55989 | 34882 ft | 504 kts | 131° |
| 2026-05-04 00:17 | -6.00756 | 88.61215 | 34886 ft | 505 kts | 131° |
| 2026-05-04 00:18 | -6.05447 | 88.66409 | 34893 ft | 505 kts | 131° |
| 2026-05-04 00:18 | -6.10168 | 88.71637 | 34878 ft | 506 kts | 131° |
| 2026-05-04 00:19 | -6.14894 | 88.76873 | 34887 ft | 506 kts | 131° |
| 2026-05-04 00:19 | -6.19626 | 88.82115 | 34891 ft | 506 kts | 131° |
| 2026-05-04 00:20 | -6.24370 | 88.87375 | 34893 ft | 507 kts | 131° |
| 2026-05-04 00:20 | -6.29113 | 88.92633 | 34884 ft | 508 kts | 131° |
| 2026-05-04 00:21 | -6.33829 | 88.97863 | 34889 ft | 508 kts | 131° |
| 2026-05-04 00:21 | -6.38579 | 89.03133 | 34906 ft | 509 kts | 131° |
| 2026-05-04 00:22 | -6.43332 | 89.08407 | 34889 ft | 509 kts | 131° |
| 2026-05-04 00:22 | -6.48087 | 89.13685 | 34893 ft | 509 kts | 131° |
| 2026-05-04 00:23 | -6.52842 | 89.18965 | 34897 ft | 509 kts | 131° |
| 2026-05-04 00:23 | -6.57602 | 89.24252 | 34875 ft | 510 kts | 131° |
| 2026-05-04 00:24 | -6.62372 | 89.29553 | 34891 ft | 510 kts | 131° |
| 2026-05-04 00:24 | -6.67111 | 89.34819 | 34883 ft | 512 kts | 131° |
| 2026-05-04 00:25 | -6.71895 | 89.40138 | 34899 ft | 512 kts | 131° |
| 2026-05-04 00:25 | -6.76684 | 89.45465 | 34913 ft | 512 kts | 131° |
| 2026-05-04 00:26 | -6.81477 | 89.50796 | 34918 ft | 512 kts | 131° |
| 2026-05-04 00:26 | -6.86223 | 89.56078 | 34913 ft | 512 kts | 131° |
| 2026-05-04 00:27 | -6.90997 | 89.61392 | 34913 ft | 511 kts | 131° |
| 2026-05-04 00:27 | -6.95772 | 89.66709 | 34901 ft | 511 kts | 131° |
| 2026-05-04 00:28 | -7.00542 | 89.72022 | 34894 ft | 511 kts | 131° |
| 2026-05-04 00:28 | -7.05312 | 89.77337 | 34884 ft | 512 kts | 130° |
| 2026-05-04 00:29 | -7.10087 | 89.82660 | 34910 ft | 512 kts | 131° |
| 2026-05-04 00:29 | -7.14863 | 89.87986 | 34904 ft | 511 kts | 131° |
| 2026-05-04 00:30 | -7.19637 | 89.93310 | 34903 ft | 512 kts | 131° |
| 2026-05-04 00:30 | -7.24403 | 89.98628 | 34913 ft | 511 kts | 131° |
| 2026-05-04 00:31 | -7.29131 | 90.03905 | 34904 ft | 511 kts | 131° |
| 2026-05-04 00:31 | -7.33894 | 90.09223 | 34888 ft | 511 kts | 131° |
| 2026-05-04 00:32 | -7.38655 | 90.14540 | 34885 ft | 512 kts | 131° |
| 2026-05-04 00:32 | -7.43423 | 90.19868 | 34907 ft | 511 kts | 131° |
| 2026-05-04 00:33 | -7.50583 | 90.27872 | 34918 ft | 512 kts | 131° |
| 2026-05-04 00:34 | -7.55352 | 90.33204 | 34902 ft | 512 kts | 131° |
| 2026-05-04 00:34 | -7.60132 | 90.38551 | 34894 ft | 513 kts | 131° |
| 2026-05-04 00:35 | -7.64886 | 90.43872 | 34892 ft | 514 kts | 131° |
| 2026-05-04 00:35 | -7.69669 | 90.49226 | 34898 ft | 515 kts | 131° |
| 2026-05-04 00:36 | -7.74462 | 90.54595 | 34907 ft | 515 kts | 131° |
| 2026-05-04 00:36 | -7.79268 | 90.59979 | 34910 ft | 516 kts | 131° |
| 2026-05-04 00:37 | -7.84043 | 90.65330 | 34915 ft | 516 kts | 131° |
| 2026-05-04 00:37 | -7.88842 | 90.70710 | 34912 ft | 516 kts | 131° |
| 2026-05-04 00:38 | -7.93643 | 90.76095 | 34912 ft | 516 kts | 131° |
| 2026-05-04 00:38 | -7.98437 | 90.81474 | 34907 ft | 515 kts | 131° |
| 2026-05-04 00:39 | -8.03233 | 90.86857 | 34904 ft | 515 kts | 131° |
| 2026-05-04 00:39 | -8.08026 | 90.92239 | 34904 ft | 515 kts | 131° |
| 2026-05-04 00:40 | -8.12814 | 90.97618 | 34905 ft | 515 kts | 131° |
| 2026-05-04 00:40 | -8.17601 | 91.02996 | 34906 ft | 515 kts | 131° |
| 2026-05-04 00:41 | -8.22355 | 91.08341 | 34906 ft | 515 kts | 131° |
| 2026-05-04 00:41 | -8.27145 | 91.13727 | 34907 ft | 515 kts | 131° |
| 2026-05-04 00:42 | -8.31932 | 91.19112 | 34906 ft | 515 kts | 131° |
| 2026-05-04 00:42 | -8.36725 | 91.24507 | 34905 ft | 516 kts | 130° |
| 2026-05-04 00:43 | -8.41527 | 91.29914 | 34910 ft | 516 kts | 130° |
| 2026-05-04 00:43 | -8.46294 | 91.35283 | 34914 ft | 517 kts | 130° |
| 2026-05-04 00:44 | -8.51096 | 91.40695 | 34914 ft | 517 kts | 130° |
| 2026-05-04 00:44 | -8.55904 | 91.46114 | 34916 ft | 518 kts | 130° |
| 2026-05-04 00:45 | -8.60707 | 91.51530 | 34921 ft | 518 kts | 130° |
| 2026-05-04 00:45 | -8.65510 | 91.56950 | 34918 ft | 517 kts | 131° |
| 2026-05-04 00:46 | -8.70309 | 91.62366 | 34919 ft | 517 kts | 131° |
| 2026-05-04 00:46 | -8.75113 | 91.67790 | 34908 ft | 518 kts | 131° |
| 2026-05-04 00:47 | -8.79914 | 91.73214 | 34915 ft | 518 kts | 130° |
| 2026-05-04 00:47 | -8.84716 | 91.78641 | 34915 ft | 518 kts | 130° |
| 2026-05-04 00:48 | -8.89523 | 91.84076 | 34919 ft | 518 kts | 130° |
| 2026-05-04 00:48 | -8.94304 | 91.89483 | 34920 ft | 518 kts | 130° |
| 2026-05-04 00:49 | -8.99109 | 91.94921 | 34917 ft | 518 kts | 131° |
| 2026-05-04 00:49 | -9.03913 | 92.00358 | 34920 ft | 518 kts | 131° |
| 2026-05-04 00:50 | -9.08713 | 92.05795 | 34926 ft | 518 kts | 131° |
| 2026-05-04 00:50 | -9.13516 | 92.11236 | 34908 ft | 519 kts | 131° |
| 2026-05-04 00:51 | -9.18323 | 92.16686 | 34924 ft | 519 kts | 131° |
| 2026-05-04 00:51 | -9.23106 | 92.22109 | 34922 ft | 519 kts | 131° |
| 2026-05-04 00:52 | -9.27916 | 92.27566 | 34923 ft | 519 kts | 131° |
| 2026-05-04 00:52 | -9.32727 | 92.33028 | 34924 ft | 520 kts | 131° |
| 2026-05-04 00:53 | -9.37540 | 92.38492 | 34922 ft | 520 kts | 131° |
| 2026-05-04 00:53 | -9.42353 | 92.43960 | 34929 ft | 520 kts | 131° |
| 2026-05-04 00:54 | -9.47163 | 92.49427 | 34926 ft | 520 kts | 131° |
| 2026-05-04 00:54 | -9.51972 | 92.54895 | 34931 ft | 520 kts | 131° |
| 2026-05-04 00:55 | -9.56780 | 92.60364 | 34920 ft | 520 kts | 131° |
| 2026-05-04 00:55 | -9.61592 | 92.65842 | 34918 ft | 520 kts | 131° |
| 2026-05-04 00:56 | -9.66372 | 92.71285 | 34913 ft | 520 kts | 131° |
| 2026-05-04 00:56 | -9.71185 | 92.76768 | 34934 ft | 520 kts | 131° |
| 2026-05-04 00:57 | -9.75993 | 92.82247 | 34935 ft | 520 kts | 131° |
| 2026-05-04 00:57 | -9.80796 | 92.87724 | 34929 ft | 520 kts | 131° |
| 2026-05-04 00:58 | -9.84797 | 92.92287 | 34939 ft | 520 kts | 131° |
| 2026-05-04 00:58 | -9.89604 | 92.97773 | 34931 ft | 519 kts | 131° |
| 2026-05-04 00:59 | -9.94397 | 93.03247 | 34918 ft | 519 kts | 131° |
| 2026-05-04 00:59 | -9.99195 | 93.08729 | 34908 ft | 520 kts | 132° |
| 2026-05-04 01:00 | -10.04007 | 93.14228 | 34914 ft | 521 kts | 132° |
| 2026-05-04 01:00 | -10.08826 | 93.19737 | 34923 ft | 522 kts | 132° |
| 2026-05-04 01:01 | -10.13648 | 93.25253 | 34933 ft | 523 kts | 131° |
| 2026-05-04 01:01 | -10.18482 | 93.30787 | 34937 ft | 523 kts | 131° |
| 2026-05-04 01:02 | -10.23315 | 93.36322 | 34945 ft | 524 kts | 132° |
| 2026-05-04 01:02 | -10.28141 | 93.41850 | 34945 ft | 523 kts | 132° |
| 2026-05-04 01:03 | -10.32970 | 93.47385 | 34940 ft | 523 kts | 132° |
| 2026-05-04 01:03 | -10.37794 | 93.52917 | 34938 ft | 523 kts | 132° |
| 2026-05-04 01:04 | -10.42581 | 93.58410 | 34940 ft | 522 kts | 132° |
| 2026-05-04 01:04 | -10.47401 | 93.63942 | 34938 ft | 522 kts | 132° |
| 2026-05-04 01:05 | -10.52210 | 93.69463 | 34934 ft | 522 kts | 132° |
| 2026-05-04 01:05 | -10.57019 | 93.74987 | 34939 ft | 521 kts | 131° |
| 2026-05-04 01:06 | -10.61799 | 93.80482 | 34941 ft | 521 kts | 131° |
| 2026-05-04 01:06 | -10.66398 | 93.86206 | 34903 ft | 523 kts | 126° |
| 2026-05-04 01:07 | -10.70726 | 93.92179 | 34920 ft | 525 kts | 127° |
| 2026-05-04 01:07 | -10.75090 | 93.98152 | 34934 ft | 527 kts | 127° |
| 2026-05-04 01:08 | -10.79464 | 94.04151 | 34949 ft | 528 kts | 127° |
| 2026-05-04 01:08 | -10.83838 | 94.10158 | 34955 ft | 529 kts | 127° |
| 2026-05-04 01:09 | -10.88194 | 94.16145 | 34954 ft | 529 kts | 126° |
| 2026-05-04 01:09 | -10.92568 | 94.22160 | 34968 ft | 527 kts | 127° |
| 2026-05-04 01:10 | -10.96923 | 94.28154 | 34963 ft | 527 kts | 126° |
| 2026-05-04 01:10 | -11.01278 | 94.34152 | 34955 ft | 526 kts | 126° |
| 2026-05-04 01:11 | -11.05625 | 94.40141 | 34951 ft | 525 kts | 126° |
| 2026-05-04 01:11 | -11.09938 | 94.46087 | 34945 ft | 524 kts | 126° |
| 2026-05-04 01:12 | -11.14266 | 94.52058 | 34938 ft | 524 kts | 126° |
| 2026-05-04 01:12 | -11.18587 | 94.58022 | 34928 ft | 523 kts | 126° |
| 2026-05-04 01:13 | -11.22912 | 94.63994 | 34940 ft | 522 kts | 126° |
| 2026-05-04 01:13 | -11.27220 | 94.69948 | 34942 ft | 522 kts | 126° |
| 2026-05-04 01:14 | -11.31530 | 94.75908 | 34930 ft | 522 kts | 126° |
| 2026-05-04 01:14 | -11.35833 | 94.81861 | 34931 ft | 522 kts | 126° |
| 2026-05-04 01:15 | -11.40136 | 94.87816 | 34934 ft | 522 kts | 126° |
| 2026-05-04 01:15 | -11.44411 | 94.93737 | 34936 ft | 522 kts | 126° |
| 2026-05-04 01:16 | -11.48715 | 94.99702 | 34944 ft | 522 kts | 126° |
| 2026-05-04 01:16 | -11.53021 | 95.05673 | 34944 ft | 522 kts | 126° |
| 2026-05-04 01:17 | -11.57330 | 95.11652 | 34948 ft | 523 kts | 126° |
| 2026-05-04 01:17 | -11.61631 | 95.17623 | 34951 ft | 523 kts | 126° |
| 2026-05-04 01:18 | -11.65913 | 95.23572 | 34943 ft | 523 kts | 126° |
| 2026-05-04 01:18 | -11.70223 | 95.29563 | 34944 ft | 523 kts | 126° |
| 2026-05-04 01:19 | -11.74523 | 95.35542 | 34951 ft | 523 kts | 126° |
| 2026-05-04 01:19 | -11.78827 | 95.41531 | 34951 ft | 523 kts | 126° |
| 2026-05-04 01:20 | -11.83126 | 95.47519 | 34950 ft | 522 kts | 126° |
| 2026-05-04 01:20 | -11.87396 | 95.53468 | 34950 ft | 522 kts | 126° |
| 2026-05-04 01:21 | -11.91687 | 95.59451 | 34951 ft | 522 kts | 126° |
| 2026-05-04 01:21 | -11.95979 | 95.65438 | 34950 ft | 522 kts | 126° |
| 2026-05-04 01:22 | -12.00266 | 95.71422 | 34937 ft | 522 kts | 126° |
| 2026-05-04 01:22 | -12.04554 | 95.77411 | 34948 ft | 522 kts | 126° |
| 2026-05-04 01:23 | -12.08845 | 95.83408 | 34950 ft | 523 kts | 126° |
| 2026-05-04 01:23 | -12.13108 | 95.89369 | 34953 ft | 523 kts | 126° |
| 2026-05-04 01:24 | -12.17397 | 95.95371 | 34956 ft | 523 kts | 126° |
| 2026-05-04 01:24 | -12.21687 | 96.01378 | 34957 ft | 523 kts | 126° |
| 2026-05-04 01:25 | -12.25976 | 96.07388 | 34955 ft | 523 kts | 126° |
| 2026-05-04 01:25 | -12.30273 | 96.13411 | 34955 ft | 523 kts | 126° |
| 2026-05-04 01:26 | -12.34563 | 96.19430 | 34956 ft | 524 kts | 126° |
| 2026-05-04 01:26 | -12.38858 | 96.25459 | 34955 ft | 524 kts | 126° |
| 2026-05-04 01:27 | -12.43124 | 96.31451 | 34960 ft | 525 kts | 126° |
| 2026-05-04 01:27 | -12.47429 | 96.37502 | 34962 ft | 525 kts | 126° |
| 2026-05-04 01:28 | -12.51727 | 96.43547 | 34965 ft | 525 kts | 126° |
| 2026-05-04 01:28 | -12.55998 | 96.49557 | 34976 ft | 524 kts | 126° |
| 2026-05-04 01:29 | -12.60283 | 96.55592 | 34974 ft | 524 kts | 126° |
| 2026-05-04 01:29 | -12.64567 | 96.61629 | 34971 ft | 523 kts | 126° |
| 2026-05-04 01:30 | -12.68847 | 96.67664 | 34971 ft | 523 kts | 126° |
| 2026-05-04 01:30 | -12.73119 | 96.73692 | 34956 ft | 523 kts | 126° |
| 2026-05-04 01:31 | -12.77397 | 96.79733 | 34960 ft | 524 kts | 126° |
| 2026-05-04 01:31 | -12.81682 | 96.85786 | 34965 ft | 524 kts | 125° |
| 2026-05-04 01:32 | -12.85965 | 96.91842 | 34974 ft | 525 kts | 125° |
| 2026-05-04 01:32 | -12.90224 | 96.97867 | 34977 ft | 525 kts | 125° |
| 2026-05-04 01:33 | -12.94503 | 97.03925 | 34975 ft | 525 kts | 125° |
| 2026-05-04 01:33 | -12.98783 | 97.09988 | 34978 ft | 525 kts | 125° |
| 2026-05-04 01:34 | -13.03061 | 97.16053 | 34977 ft | 524 kts | 125° |
| 2026-05-04 01:34 | -13.07336 | 97.22117 | 34967 ft | 525 kts | 125° |
| 2026-05-04 01:35 | -13.11615 | 97.28192 | 34969 ft | 525 kts | 125° |
| 2026-05-04 01:35 | -13.15898 | 97.34275 | 34976 ft | 526 kts | 125° |
| 2026-05-04 01:36 | -13.20178 | 97.40359 | 34978 ft | 526 kts | 125° |
| 2026-05-04 01:36 | -13.24436 | 97.46417 | 34979 ft | 526 kts | 125° |
| 2026-05-04 01:37 | -13.28722 | 97.52516 | 34978 ft | 526 kts | 125° |
| 2026-05-04 01:37 | -13.33006 | 97.58618 | 34986 ft | 526 kts | 125° |
| 2026-05-04 01:38 | -13.37283 | 97.64716 | 34986 ft | 526 kts | 125° |
| 2026-05-04 01:38 | -13.41568 | 97.70828 | 34974 ft | 527 kts | 126° |
| 2026-05-04 01:39 | -13.45853 | 97.76944 | 34980 ft | 528 kts | 126° |
| 2026-05-04 01:39 | -13.50142 | 97.83070 | 34985 ft | 528 kts | 126° |
| 2026-05-04 01:40 | -13.54434 | 97.89205 | 34986 ft | 529 kts | 126° |
| 2026-05-04 01:40 | -13.58729 | 97.95349 | 34990 ft | 529 kts | 126° |
| 2026-05-04 01:41 | -13.63021 | 98.01491 | 34991 ft | 529 kts | 125° |
| 2026-05-04 01:41 | -13.67309 | 98.07635 | 34994 ft | 529 kts | 125° |
| 2026-05-04 01:42 | -13.71591 | 98.13773 | 34993 ft | 528 kts | 125° |
| 2026-05-04 01:42 | -13.75879 | 98.19925 | 34984 ft | 529 kts | 125° |
| 2026-05-04 01:43 | -13.80142 | 98.26044 | 34988 ft | 529 kts | 125° |
| 2026-05-04 01:43 | -13.84430 | 98.32203 | 34992 ft | 529 kts | 125° |
| 2026-05-04 01:44 | -13.88715 | 98.38363 | 34996 ft | 529 kts | 125° |
| 2026-05-04 01:44 | -13.93004 | 98.44534 | 34998 ft | 529 kts | 125° |
| 2026-05-04 01:45 | -13.97291 | 98.50707 | 34997 ft | 529 kts | 125° |
| 2026-05-04 01:45 | -14.03710 | 98.59956 | 34997 ft | 529 kts | 125° |
| 2026-05-04 01:46 | -14.07964 | 98.66094 | 34988 ft | 530 kts | 125° |
| 2026-05-04 01:46 | -14.12248 | 98.72277 | 34988 ft | 530 kts | 125° |
| 2026-05-04 01:47 | -14.16535 | 98.78469 | 34987 ft | 531 kts | 125° |
| 2026-05-04 01:47 | -14.20104 | 98.83629 | 34992 ft | 531 kts | 125° |
| 2026-05-04 01:48 | -14.24389 | 98.89827 | 34995 ft | 531 kts | 125° |
| 2026-05-04 01:48 | -14.28681 | 98.96040 | 34998 ft | 532 kts | 125° |
| 2026-05-04 01:49 | -14.32974 | 99.02259 | 35001 ft | 532 kts | 125° |
| 2026-05-04 01:49 | -14.37263 | 99.08477 | 35005 ft | 532 kts | 125° |
| 2026-05-04 01:50 | -14.41530 | 99.14668 | 35004 ft | 532 kts | 125° |
| 2026-05-04 01:50 | -14.45813 | 99.20888 | 35004 ft | 532 kts | 125° |
| 2026-05-04 01:51 | -14.50103 | 99.27121 | 35008 ft | 532 kts | 125° |
| 2026-05-04 01:51 | -14.54389 | 99.33354 | 35008 ft | 532 kts | 125° |
| 2026-05-04 01:52 | -14.58672 | 99.39587 | 35009 ft | 532 kts | 125° |
| 2026-05-04 01:52 | -14.62958 | 99.45830 | 35008 ft | 532 kts | 125° |
| 2026-05-04 01:53 | -14.67237 | 99.52067 | 35011 ft | 532 kts | 125° |
| 2026-05-04 01:53 | -14.71480 | 99.58257 | 35013 ft | 532 kts | 125° |
| 2026-05-04 01:54 | -14.75756 | 99.64501 | 34997 ft | 533 kts | 125° |
| 2026-05-04 01:54 | -14.80038 | 99.70757 | 35000 ft | 533 kts | 125° |
| 2026-05-04 01:55 | -14.84323 | 99.77019 | 35003 ft | 534 kts | 125° |
| 2026-05-04 01:55 | -14.88615 | 99.83297 | 35009 ft | 534 kts | 125° |
| 2026-05-04 01:56 | -14.92874 | 99.89530 | 35007 ft | 535 kts | 125° |
| 2026-05-04 01:56 | -14.97165 | 99.95816 | 35011 ft | 535 kts | 125° |
| 2026-05-04 01:57 | -15.01352 | 100.02180 | 35019 ft | 535 kts | 122° |
| 2026-05-04 01:57 | -15.05358 | 100.08672 | 35020 ft | 535 kts | 123° |
| 2026-05-04 01:58 | -15.09400 | 100.15163 | 35008 ft | 537 kts | 123° |
| 2026-05-04 01:58 | -15.13436 | 100.21667 | 35011 ft | 537 kts | 123° |
| 2026-05-04 01:59 | -15.17475 | 100.28189 | 35014 ft | 538 kts | 123° |
| 2026-05-04 01:59 | -15.21490 | 100.34681 | 35021 ft | 539 kts | 123° |
| 2026-05-04 02:00 | -15.25530 | 100.41221 | 35025 ft | 539 kts | 123° |
| 2026-05-04 02:00 | -15.29574 | 100.47773 | 35033 ft | 539 kts | 123° |
| 2026-05-04 02:01 | -15.33613 | 100.54323 | 35033 ft | 540 kts | 123° |
| 2026-05-04 02:01 | -15.37658 | 100.60888 | 35037 ft | 539 kts | 123° |
| 2026-05-04 02:02 | -15.41693 | 100.67443 | 35036 ft | 540 kts | 123° |
| 2026-05-04 02:02 | -15.45728 | 100.74002 | 35036 ft | 540 kts | 123° |
| 2026-05-04 02:03 | -15.49764 | 100.80568 | 35035 ft | 540 kts | 123° |
| 2026-05-04 02:03 | -15.53770 | 100.87093 | 35041 ft | 540 kts | 123° |
| 2026-05-04 02:04 | -15.57800 | 100.93662 | 35041 ft | 539 kts | 123° |
| 2026-05-04 02:04 | -15.61825 | 101.00229 | 35042 ft | 539 kts | 123° |
| 2026-05-04 02:05 | -15.65851 | 101.06803 | 35038 ft | 539 kts | 123° |
| 2026-05-04 02:05 | -15.69875 | 101.13379 | 35038 ft | 539 kts | 123° |
| 2026-05-04 02:06 | -15.73898 | 101.19959 | 35021 ft | 540 kts | 123° |
| 2026-05-04 02:06 | -15.77899 | 101.26510 | 35031 ft | 541 kts | 123° |
| 2026-05-04 02:07 | -15.81929 | 101.33114 | 35031 ft | 541 kts | 123° |
| 2026-05-04 02:07 | -15.85953 | 101.39714 | 35034 ft | 541 kts | 123° |
| 2026-05-04 02:08 | -15.89987 | 101.46336 | 35037 ft | 541 kts | 123° |
| 2026-05-04 02:08 | -15.94013 | 101.52951 | 35041 ft | 542 kts | 123° |
| 2026-05-04 02:09 | -15.98043 | 101.59578 | 35041 ft | 542 kts | 123° |
| 2026-05-04 02:09 | -16.02068 | 101.66204 | 35042 ft | 542 kts | 123° |
| 2026-05-04 02:10 | -16.06094 | 101.72838 | 35031 ft | 543 kts | 124° |
| 2026-05-04 02:10 | -16.10123 | 101.79481 | 35035 ft | 543 kts | 124° |
| 2026-05-04 02:11 | -16.14131 | 101.86095 | 35038 ft | 543 kts | 123° |
| 2026-05-04 02:11 | -16.18160 | 101.92752 | 35042 ft | 544 kts | 123° |
| 2026-05-04 02:12 | -16.22188 | 101.99412 | 35048 ft | 544 kts | 123° |
| 2026-05-04 02:12 | -16.26213 | 102.06075 | 35058 ft | 544 kts | 123° |
| 2026-05-04 02:13 | -16.30238 | 102.12742 | 35058 ft | 543 kts | 123° |
| 2026-05-04 02:13 | -16.34257 | 102.19406 | 35056 ft | 543 kts | 123° |
| 2026-05-04 02:14 | -16.38274 | 102.26075 | 35043 ft | 544 kts | 124° |
| 2026-05-04 02:14 | -16.42292 | 102.32748 | 35045 ft | 544 kts | 124° |
| 2026-05-04 02:15 | -16.46289 | 102.39395 | 35045 ft | 544 kts | 124° |
| 2026-05-04 02:15 | -16.50308 | 102.46084 | 35051 ft | 544 kts | 124° |
| 2026-05-04 02:16 | -16.54323 | 102.52774 | 35054 ft | 544 kts | 124° |
| 2026-05-04 02:16 | -16.58334 | 102.59462 | 35053 ft | 544 kts | 124° |
| 2026-05-04 02:17 | -16.62347 | 102.66161 | 35050 ft | 544 kts | 124° |
| 2026-05-04 02:17 | -16.66354 | 102.72855 | 35045 ft | 545 kts | 124° |
| 2026-05-04 02:18 | -16.70340 | 102.79520 | 35037 ft | 545 kts | 124° |
| 2026-05-04 02:18 | -16.74352 | 102.86237 | 35041 ft | 545 kts | 124° |
| 2026-05-04 02:19 | -16.78363 | 102.92957 | 35042 ft | 546 kts | 124° |
| 2026-05-04 02:19 | -16.82374 | 102.99685 | 35044 ft | 546 kts | 124° |
| 2026-05-04 02:20 | -16.86384 | 103.06417 | 35044 ft | 546 kts | 124° |
| 2026-05-04 02:20 | -16.90394 | 103.13154 | 35046 ft | 546 kts | 124° |
| 2026-05-04 02:21 | -16.94406 | 103.19903 | 35054 ft | 546 kts | 124° |
| 2026-05-04 02:21 | -16.98411 | 103.26647 | 35035 ft | 547 kts | 124° |
| 2026-05-04 02:22 | -17.02433 | 103.33426 | 35035 ft | 548 kts | 124° |
| 2026-05-04 02:22 | -17.06425 | 103.40159 | 35040 ft | 548 kts | 124° |
| 2026-05-04 02:23 | -17.10444 | 103.46946 | 35046 ft | 549 kts | 124° |
| 2026-05-04 02:23 | -17.14460 | 103.53735 | 35057 ft | 549 kts | 124° |
| 2026-05-04 02:24 | -17.18475 | 103.60529 | 35056 ft | 549 kts | 124° |
| 2026-05-04 02:24 | -17.22491 | 103.67331 | 35057 ft | 549 kts | 124° |
| 2026-05-04 02:25 | -17.26504 | 103.74134 | 35060 ft | 549 kts | 124° |
| 2026-05-04 02:25 | -17.30492 | 103.80905 | 35044 ft | 550 kts | 124° |
| 2026-05-04 02:26 | -17.34508 | 103.87727 | 35049 ft | 551 kts | 124° |
| 2026-05-04 02:26 | -17.38528 | 103.94561 | 35047 ft | 551 kts | 124° |
| 2026-05-04 02:27 | -17.42547 | 104.01404 | 35059 ft | 551 kts | 124° |
| 2026-05-04 02:27 | -17.46568 | 104.08256 | 35053 ft | 551 kts | 124° |
| 2026-05-04 02:28 | -17.50561 | 104.15066 | 35056 ft | 552 kts | 124° |
| 2026-05-04 02:28 | -17.54578 | 104.21926 | 35058 ft | 552 kts | 124° |
| 2026-05-04 02:29 | -17.58591 | 104.28784 | 35065 ft | 551 kts | 124° |
| 2026-05-04 02:29 | -17.62603 | 104.35650 | 35063 ft | 551 kts | 124° |
| 2026-05-04 02:30 | -17.66581 | 104.42464 | 35064 ft | 551 kts | 124° |
| 2026-05-04 02:30 | -17.70577 | 104.49316 | 35063 ft | 551 kts | 124° |
| 2026-05-04 02:31 | -17.74577 | 104.56182 | 35064 ft | 551 kts | 124° |
| 2026-05-04 02:31 | -17.78569 | 104.63041 | 35063 ft | 551 kts | 124° |
| 2026-05-04 02:32 | -17.82561 | 104.69907 | 35065 ft | 551 kts | 124° |
| 2026-05-04 02:32 | -17.86550 | 104.76777 | 35075 ft | 551 kts | 124° |
| 2026-05-04 02:33 | -17.90549 | 104.83668 | 35045 ft | 552 kts | 124° |
| 2026-05-04 02:33 | -17.94550 | 104.90564 | 35053 ft | 552 kts | 124° |
| 2026-05-04 02:34 | -17.98543 | 104.97456 | 35060 ft | 552 kts | 124° |
| 2026-05-04 02:34 | -18.03139 | 105.03779 | 35057 ft | 546 kts | 135° |
| 2026-05-04 02:35 | -18.08151 | 105.09775 | 35059 ft | 546 kts | 135° |
| 2026-05-04 02:35 | -18.13154 | 105.15791 | 35063 ft | 546 kts | 135° |
| 2026-05-04 02:36 | -18.18158 | 105.21809 | 35050 ft | 547 kts | 135° |
| 2026-05-04 02:36 | -18.23169 | 105.27839 | 35069 ft | 547 kts | 135° |
| 2026-05-04 02:37 | -18.27327 | 105.32848 | 35069 ft | 547 kts | 135° |
| 2026-05-04 02:37 | -18.32342 | 105.38896 | 35071 ft | 547 kts | 135° |
| 2026-05-04 02:38 | -18.37351 | 105.44943 | 35071 ft | 547 kts | 135° |
| 2026-05-04 02:38 | -18.42357 | 105.50993 | 35073 ft | 547 kts | 135° |
| 2026-05-04 02:39 | -18.47356 | 105.57039 | 35090 ft | 548 kts | 135° |
| 2026-05-04 02:39 | -18.52365 | 105.63104 | 35070 ft | 548 kts | 135° |
| 2026-05-04 02:40 | -18.57333 | 105.69124 | 35066 ft | 548 kts | 135° |
| 2026-05-04 02:40 | -18.62337 | 105.75195 | 35068 ft | 549 kts | 135° |
| 2026-05-04 02:41 | -18.67341 | 105.81272 | 35066 ft | 549 kts | 135° |
| 2026-05-04 02:41 | -18.72347 | 105.87357 | 35075 ft | 549 kts | 135° |
| 2026-05-04 02:42 | -18.77349 | 105.93442 | 35083 ft | 549 kts | 135° |
| 2026-05-04 02:42 | -18.82360 | 105.99545 | 35065 ft | 550 kts | 135° |
| 2026-05-04 02:43 | -18.87370 | 106.05653 | 35077 ft | 550 kts | 135° |
| 2026-05-04 02:43 | -18.92382 | 106.11769 | 35079 ft | 550 kts | 135° |
| 2026-05-04 02:44 | -18.97355 | 106.17843 | 35085 ft | 550 kts | 135° |
| 2026-05-04 02:44 | -19.02361 | 106.23965 | 35080 ft | 550 kts | 135° |
| 2026-05-04 02:45 | -19.07379 | 106.30108 | 35092 ft | 551 kts | 135° |
| 2026-05-04 02:45 | -19.12396 | 106.36254 | 35082 ft | 552 kts | 135° |
| 2026-05-04 02:46 | -19.17405 | 106.42397 | 35087 ft | 552 kts | 135° |
| 2026-05-04 02:46 | -19.22383 | 106.48508 | 35089 ft | 552 kts | 135° |
| 2026-05-04 02:47 | -19.27385 | 106.54656 | 35085 ft | 552 kts | 135° |
| 2026-05-04 02:47 | -19.32400 | 106.60825 | 35091 ft | 552 kts | 135° |
| 2026-05-04 02:48 | -19.37407 | 106.66992 | 35087 ft | 552 kts | 135° |
| 2026-05-04 02:48 | -19.42387 | 106.73130 | 35094 ft | 552 kts | 136° |
| 2026-05-04 02:49 | -19.47392 | 106.79307 | 35089 ft | 552 kts | 136° |
| 2026-05-04 02:49 | -19.52392 | 106.85483 | 35095 ft | 552 kts | 136° |
| 2026-05-04 02:50 | -19.57393 | 106.91668 | 35094 ft | 552 kts | 135° |
| 2026-05-04 02:50 | -19.62395 | 106.97859 | 35091 ft | 552 kts | 135° |
| 2026-05-04 02:51 | -19.67393 | 107.04052 | 35086 ft | 553 kts | 136° |
| 2026-05-04 02:51 | -19.72398 | 107.10261 | 35087 ft | 553 kts | 136° |
| 2026-05-04 02:52 | -19.77394 | 107.16464 | 35091 ft | 553 kts | 136° |
| 2026-05-04 02:52 | -19.82390 | 107.22675 | 35084 ft | 553 kts | 136° |
| 2026-05-04 02:53 | -19.87358 | 107.28858 | 35091 ft | 553 kts | 136° |
| 2026-05-04 02:53 | -19.92353 | 107.35079 | 35082 ft | 553 kts | 136° |
| 2026-05-04 02:54 | -19.97352 | 107.41314 | 35094 ft | 554 kts | 136° |
| 2026-05-04 02:54 | -20.02348 | 107.47551 | 35096 ft | 554 kts | 136° |
| 2026-05-04 02:55 | -20.09841 | 107.56918 | 35089 ft | 554 kts | 136° |
| 2026-05-04 02:56 | -20.14800 | 107.63125 | 35092 ft | 554 kts | 136° |
| 2026-05-04 02:56 | -20.19792 | 107.69380 | 35093 ft | 554 kts | 136° |
| 2026-05-04 02:57 | -20.24781 | 107.75639 | 35084 ft | 554 kts | 136° |
| 2026-05-04 02:57 | -20.29765 | 107.81897 | 35090 ft | 554 kts | 136° |
| 2026-05-04 02:58 | -20.34751 | 107.88165 | 35089 ft | 554 kts | 136° |
| 2026-05-04 02:58 | -20.39736 | 107.94439 | 35088 ft | 554 kts | 136° |
| 2026-05-04 02:59 | -20.44721 | 108.00720 | 35090 ft | 554 kts | 136° |
| 2026-05-04 02:59 | -20.49700 | 108.06999 | 35089 ft | 554 kts | 136° |
| 2026-05-04 03:00 | -20.54644 | 108.13243 | 35089 ft | 554 kts | 136° |
| 2026-05-04 03:00 | -20.59622 | 108.19535 | 35093 ft | 555 kts | 136° |
| 2026-05-04 03:01 | -20.64594 | 108.25828 | 35091 ft | 555 kts | 136° |
| 2026-05-04 03:01 | -20.69573 | 108.32136 | 35089 ft | 555 kts | 136° |
| 2026-05-04 03:02 | -20.74542 | 108.38438 | 35090 ft | 555 kts | 136° |
| 2026-05-04 03:02 | -20.79514 | 108.44752 | 35086 ft | 555 kts | 136° |
| 2026-05-04 03:03 | -20.84453 | 108.51030 | 35090 ft | 555 kts | 136° |
| 2026-05-04 03:03 | -20.89427 | 108.57359 | 35086 ft | 555 kts | 136° |
| 2026-05-04 03:04 | -20.94392 | 108.63685 | 35086 ft | 555 kts | 136° |
| 2026-05-04 03:04 | -20.99354 | 108.70014 | 35087 ft | 555 kts | 136° |
| 2026-05-04 03:05 | -21.04320 | 108.76355 | 35085 ft | 555 kts | 136° |
| 2026-05-04 03:05 | -21.09288 | 108.82707 | 35074 ft | 556 kts | 136° |
| 2026-05-04 03:06 | -21.14255 | 108.89062 | 35074 ft | 556 kts | 136° |
| 2026-05-04 03:06 | -21.19187 | 108.95382 | 35078 ft | 557 kts | 136° |
| 2026-05-04 03:07 | -21.24150 | 109.01748 | 35084 ft | 557 kts | 136° |
| 2026-05-04 03:07 | -21.29121 | 109.08132 | 35085 ft | 557 kts | 136° |
| 2026-05-04 03:08 | -21.34090 | 109.14522 | 35097 ft | 557 kts | 136° |
| 2026-05-04 03:08 | -21.39062 | 109.20921 | 35087 ft | 558 kts | 136° |
| 2026-05-04 03:09 | -21.44027 | 109.27320 | 35085 ft | 558 kts | 136° |
| 2026-05-04 03:09 | -21.48996 | 109.33731 | 35083 ft | 558 kts | 136° |
| 2026-05-04 03:10 | -21.53926 | 109.40100 | 35081 ft | 558 kts | 136° |
| 2026-05-04 03:10 | -21.58883 | 109.46510 | 35088 ft | 558 kts | 136° |
| 2026-05-04 03:11 | -21.63838 | 109.52927 | 35088 ft | 558 kts | 136° |
| 2026-05-04 03:11 | -21.68795 | 109.59352 | 35089 ft | 558 kts | 136° |
| 2026-05-04 03:12 | -21.73747 | 109.65779 | 35088 ft | 558 kts | 136° |
| 2026-05-04 03:12 | -21.78703 | 109.72218 | 35086 ft | 558 kts | 136° |
| 2026-05-04 03:13 | -21.83646 | 109.78650 | 35086 ft | 558 kts | 136° |
| 2026-05-04 03:13 | -21.88596 | 109.85096 | 35085 ft | 558 kts | 136° |
| 2026-05-04 03:14 | -21.93505 | 109.91491 | 35084 ft | 558 kts | 136° |
| 2026-05-04 03:14 | -21.98452 | 109.97944 | 35083 ft | 558 kts | 136° |
| 2026-05-04 03:15 | -22.03455 | 110.04341 | 35081 ft | 556 kts | 139° |
| 2026-05-04 03:15 | -22.08575 | 110.10586 | 35084 ft | 556 kts | 139° |
| 2026-05-04 03:16 | -22.13660 | 110.16815 | 35106 ft | 556 kts | 139° |
| 2026-05-04 03:16 | -22.18764 | 110.23103 | 35088 ft | 556 kts | 139° |
| 2026-05-04 03:17 | -22.23856 | 110.29394 | 35085 ft | 556 kts | 139° |
| 2026-05-04 03:17 | -22.28949 | 110.35695 | 35083 ft | 556 kts | 139° |
| 2026-05-04 03:18 | -22.34035 | 110.41996 | 35089 ft | 556 kts | 139° |
| 2026-05-04 03:18 | -22.39120 | 110.48302 | 35090 ft | 556 kts | 139° |
| 2026-05-04 03:19 | -22.44204 | 110.54614 | 35085 ft | 557 kts | 139° |
| 2026-05-04 03:19 | -22.49289 | 110.60935 | 35085 ft | 557 kts | 139° |
| 2026-05-04 03:20 | -22.54340 | 110.67222 | 35090 ft | 557 kts | 139° |
| 2026-05-04 03:20 | -22.59418 | 110.73549 | 35088 ft | 557 kts | 139° |
| 2026-05-04 03:21 | -22.64503 | 110.79894 | 35093 ft | 557 kts | 139° |
| 2026-05-04 03:21 | -22.69582 | 110.86240 | 35101 ft | 557 kts | 139° |
| 2026-05-04 03:22 | -22.74665 | 110.92597 | 35104 ft | 557 kts | 139° |
| 2026-05-04 03:22 | -22.79700 | 110.98903 | 35102 ft | 557 kts | 139° |
| 2026-05-04 03:23 | -22.84769 | 111.05258 | 35099 ft | 557 kts | 139° |
| 2026-05-04 03:23 | -22.89837 | 111.11621 | 35098 ft | 557 kts | 139° |
| 2026-05-04 03:24 | -22.94899 | 111.17985 | 35111 ft | 557 kts | 139° |
| 2026-05-04 03:24 | -22.99963 | 111.24358 | 35108 ft | 556 kts | 139° |
| 2026-05-04 03:25 | -23.04979 | 111.30678 | 35104 ft | 556 kts | 139° |
| 2026-05-04 03:25 | -23.10029 | 111.37050 | 35100 ft | 556 kts | 139° |
| 2026-05-04 03:26 | -23.15068 | 111.43416 | 35100 ft | 555 kts | 139° |
| 2026-05-04 03:26 | -23.20110 | 111.49793 | 35095 ft | 555 kts | 139° |
| 2026-05-04 03:27 | -23.25111 | 111.56127 | 35089 ft | 555 kts | 139° |
| 2026-05-04 03:27 | -23.30137 | 111.62500 | 35093 ft | 555 kts | 139° |
| 2026-05-04 03:28 | -23.35155 | 111.68872 | 35099 ft | 555 kts | 139° |
| 2026-05-04 03:28 | -23.40185 | 111.75266 | 35094 ft | 555 kts | 139° |
| 2026-05-04 03:29 | -23.44357 | 111.80577 | 35105 ft | 555 kts | 139° |
| 2026-05-04 03:29 | -23.49376 | 111.86973 | 35105 ft | 555 kts | 139° |
| 2026-05-04 03:30 | -23.54390 | 111.93371 | 35102 ft | 555 kts | 139° |
| 2026-05-04 03:30 | -23.59397 | 111.99767 | 35100 ft | 554 kts | 139° |
| 2026-05-04 03:31 | -23.64406 | 112.06174 | 35094 ft | 554 kts | 139° |
| 2026-05-04 03:31 | -23.69406 | 112.12578 | 35102 ft | 554 kts | 139° |
| 2026-05-04 03:32 | -23.74401 | 112.18985 | 35112 ft | 554 kts | 139° |
| 2026-05-04 03:32 | -23.79392 | 112.25394 | 35104 ft | 553 kts | 139° |
| 2026-05-04 03:33 | -23.84384 | 112.31813 | 35104 ft | 553 kts | 139° |
| 2026-05-04 03:33 | -23.89326 | 112.38177 | 35101 ft | 553 kts | 139° |
| 2026-05-04 03:34 | -23.94301 | 112.44590 | 35122 ft | 553 kts | 139° |
| 2026-05-04 03:34 | -23.99266 | 112.51000 | 35125 ft | 552 kts | 139° |
| 2026-05-04 03:35 | -24.04228 | 112.57414 | 35119 ft | 552 kts | 139° |
| 2026-05-04 03:35 | -24.09181 | 112.63824 | 35114 ft | 551 kts | 139° |
| 2026-05-04 03:36 | -24.14134 | 112.70242 | 35114 ft | 551 kts | 139° |
| 2026-05-04 03:36 | -24.19077 | 112.76656 | 35122 ft | 551 kts | 139° |
| 2026-05-04 03:37 | -24.24007 | 112.83064 | 35128 ft | 550 kts | 139° |
| 2026-05-04 03:37 | -24.28927 | 112.89465 | 35119 ft | 549 kts | 139° |
| 2026-05-04 03:38 | -24.33816 | 112.95834 | 35118 ft | 548 kts | 139° |
| 2026-05-04 03:38 | -24.38723 | 113.02235 | 35114 ft | 548 kts | 139° |
| 2026-05-04 03:39 | -24.43622 | 113.08633 | 35124 ft | 548 kts | 139° |
| 2026-05-04 03:39 | -24.48521 | 113.15042 | 35129 ft | 547 kts | 139° |
| 2026-05-04 03:40 | -24.53409 | 113.21444 | 35124 ft | 546 kts | 139° |
| 2026-05-04 03:40 | -24.58282 | 113.27835 | 35117 ft | 546 kts | 139° |
| 2026-05-04 03:41 | -24.63159 | 113.34239 | 35123 ft | 545 kts | 139° |
| 2026-05-04 03:41 | -24.67994 | 113.40597 | 35127 ft | 545 kts | 139° |
| 2026-05-04 03:42 | -24.72852 | 113.46996 | 35131 ft | 544 kts | 139° |
| 2026-05-04 03:42 | -24.77695 | 113.53380 | 35125 ft | 543 kts | 139° |
| 2026-05-04 03:43 | -24.82533 | 113.59763 | 35120 ft | 543 kts | 139° |
| 2026-05-04 03:43 | -24.87461 | 113.66014 | 35114 ft | 533 kts | 146° |
| 2026-05-04 03:44 | -24.93139 | 113.71019 | 35128 ft | 516 kts | 156° |
| 2026-05-04 03:44 | -24.99068 | 113.75509 | 35132 ft | 516 kts | 155° |
| 2026-05-04 03:45 | -25.04970 | 113.80008 | 35135 ft | 515 kts | 156° |
| 2026-05-04 03:45 | -25.10861 | 113.84496 | 35136 ft | 515 kts | 156° |
| 2026-05-04 03:46 | -25.16713 | 113.88958 | 35133 ft | 515 kts | 155° |
| 2026-05-04 03:46 | -25.22603 | 113.93453 | 35131 ft | 514 kts | 155° |
| 2026-05-04 03:47 | -25.28477 | 113.97943 | 35141 ft | 514 kts | 155° |
| 2026-05-04 03:47 | -25.34351 | 114.02438 | 35142 ft | 513 kts | 155° |
| 2026-05-04 03:48 | -25.40239 | 114.06948 | 35167 ft | 513 kts | 155° |
| 2026-05-04 03:48 | -25.46104 | 114.11447 | 35158 ft | 513 kts | 155° |
| 2026-05-04 03:49 | -25.51957 | 114.15942 | 35153 ft | 512 kts | 155° |
| 2026-05-04 03:49 | -25.57803 | 114.20437 | 35145 ft | 512 kts | 155° |
| 2026-05-04 03:50 | -25.63640 | 114.24930 | 35148 ft | 511 kts | 155° |
| 2026-05-04 03:50 | -25.69494 | 114.29443 | 35148 ft | 511 kts | 155° |
| 2026-05-04 03:51 | -25.75332 | 114.33948 | 35146 ft | 511 kts | 155° |
| 2026-05-04 03:51 | -25.81141 | 114.38436 | 35144 ft | 511 kts | 155° |
| 2026-05-04 03:52 | -25.86968 | 114.42945 | 35156 ft | 510 kts | 155° |
| 2026-05-04 03:52 | -25.92796 | 114.47458 | 35166 ft | 510 kts | 155° |
| 2026-05-04 03:53 | -25.98622 | 114.51976 | 35158 ft | 510 kts | 155° |
| 2026-05-04 03:53 | -26.04445 | 114.56498 | 35163 ft | 510 kts | 155° |
| 2026-05-04 03:54 | -26.10261 | 114.61019 | 35161 ft | 510 kts | 155° |
| 2026-05-04 03:54 | -26.16070 | 114.65541 | 35164 ft | 510 kts | 155° |
| 2026-05-04 03:55 | -26.21856 | 114.70049 | 35170 ft | 510 kts | 155° |
| 2026-05-04 03:55 | -26.27679 | 114.74594 | 35168 ft | 510 kts | 154° |
| 2026-05-04 03:56 | -26.33493 | 114.79136 | 35174 ft | 510 kts | 154° |
| 2026-05-04 03:56 | -26.39312 | 114.83688 | 35197 ft | 510 kts | 154° |
| 2026-05-04 03:57 | -26.45129 | 114.88243 | 35183 ft | 511 kts | 154° |
| 2026-05-04 03:57 | -26.50944 | 114.92804 | 35187 ft | 511 kts | 154° |
| 2026-05-04 03:58 | -26.59665 | 114.99654 | 35190 ft | 511 kts | 154° |
| 2026-05-04 03:58 | -26.65477 | 115.04225 | 35205 ft | 511 kts | 153° |
| 2026-05-04 03:59 | -26.71260 | 115.08781 | 35204 ft | 511 kts | 153° |
| 2026-05-04 03:59 | -26.77071 | 115.13366 | 35203 ft | 511 kts | 153° |
| 2026-05-04 04:00 | -26.82877 | 115.17951 | 35211 ft | 510 kts | 153° |
| 2026-05-04 04:00 | -26.88681 | 115.22539 | 35223 ft | 510 kts | 153° |
| 2026-05-04 04:01 | -26.94475 | 115.27127 | 35216 ft | 510 kts | 152° |
| 2026-05-04 04:01 | -27.00271 | 115.31723 | 35214 ft | 510 kts | 152° |
| 2026-05-04 04:02 | -27.06064 | 115.36321 | 35229 ft | 509 kts | 152° |
| 2026-05-04 04:02 | -27.11849 | 115.40919 | 35245 ft | 509 kts | 152° |
| 2026-05-04 04:03 | -27.17592 | 115.45489 | 35233 ft | 509 kts | 152° |
| 2026-05-04 04:03 | -27.23360 | 115.50086 | 35229 ft | 509 kts | 152° |
| 2026-05-04 04:04 | -27.29131 | 115.54691 | 35229 ft | 508 kts | 152° |
| 2026-05-04 04:04 | -27.34896 | 115.59295 | 35243 ft | 508 kts | 151° |
| 2026-05-04 04:05 | -27.40856 | 115.63433 | 35227 ft | 498 kts | 160° |
| 2026-05-04 04:05 | -27.47052 | 115.66954 | 35232 ft | 498 kts | 160° |
| 2026-05-04 04:06 | -27.53233 | 115.70502 | 35230 ft | 498 kts | 160° |
| 2026-05-04 04:06 | -27.59414 | 115.74051 | 35248 ft | 498 kts | 160° |
| 2026-05-04 04:07 | -27.65600 | 115.77605 | 35229 ft | 499 kts | 159° |
| 2026-05-04 04:07 | -27.71783 | 115.81163 | 35229 ft | 499 kts | 159° |
| 2026-05-04 04:08 | -27.77922 | 115.84700 | 35230 ft | 499 kts | 159° |
| 2026-05-04 04:08 | -27.84107 | 115.88265 | 35241 ft | 499 kts | 159° |
| 2026-05-04 04:09 | -27.90303 | 115.91843 | 35238 ft | 500 kts | 159° |
| 2026-05-04 04:09 | -27.96507 | 115.95432 | 35245 ft | 500 kts | 158° |
| 2026-05-04 04:10 | -28.02700 | 115.99017 | 35248 ft | 500 kts | 158° |
| 2026-05-04 04:10 | -28.08907 | 116.02616 | 35252 ft | 501 kts | 158° |
| 2026-05-04 04:11 | -28.15110 | 116.06217 | 35252 ft | 501 kts | 158° |
| 2026-05-04 04:11 | -28.21315 | 116.09824 | 35254 ft | 501 kts | 158° |
| 2026-05-04 04:12 | -28.27527 | 116.13440 | 35255 ft | 501 kts | 158° |
| 2026-05-04 04:12 | -28.33696 | 116.17033 | 35254 ft | 502 kts | 157° |
| 2026-05-04 04:13 | -28.39914 | 116.20663 | 35258 ft | 503 kts | 157° |
| 2026-05-04 04:13 | -28.46139 | 116.24301 | 35265 ft | 503 kts | 157° |
| 2026-05-04 04:14 | -28.52368 | 116.27946 | 35268 ft | 503 kts | 157° |
| 2026-05-04 04:14 | -28.58599 | 116.31594 | 35268 ft | 504 kts | 156° |
| 2026-05-04 04:15 | -28.64835 | 116.35254 | 35275 ft | 504 kts | 156° |
| 2026-05-04 04:15 | -28.70013 | 116.38297 | 35283 ft | 504 kts | 156° |
| 2026-05-04 04:16 | -28.77261 | 116.42560 | 35282 ft | 504 kts | 156° |
| 2026-05-04 04:16 | -28.82484 | 116.45636 | 35284 ft | 504 kts | 155° |
| 2026-05-04 04:17 | -28.88717 | 116.49313 | 35289 ft | 504 kts | 155° |
| 2026-05-04 04:17 | -28.94958 | 116.52999 | 35288 ft | 505 kts | 155° |
| 2026-05-04 04:18 | -29.01150 | 116.56661 | 35301 ft | 505 kts | 155° |
| 2026-05-04 04:18 | -29.07399 | 116.60361 | 35285 ft | 505 kts | 155° |
| 2026-05-04 04:19 | -29.13653 | 116.64042 | 35286 ft | 504 kts | 158° |
| 2026-05-04 04:19 | -29.20300 | 116.66341 | 35292 ft | 498 kts | 174° |
| 2026-05-04 04:20 | -29.27168 | 116.66606 | 35289 ft | 493 kts | 185° |
| 2026-05-04 04:20 | -29.34043 | 116.66426 | 35290 ft | 493 kts | 184° |
| 2026-05-04 04:21 | -29.40872 | 116.66257 | 35294 ft | 494 kts | 184° |
| 2026-05-04 04:21 | -29.47734 | 116.66077 | 35298 ft | 494 kts | 184° |
| 2026-05-04 04:22 | -29.54657 | 116.65892 | 35297 ft | 494 kts | 184° |
| 2026-05-04 04:22 | -29.61489 | 116.65709 | 35303 ft | 494 kts | 184° |
| 2026-05-04 04:23 | -29.68359 | 116.65525 | 35305 ft | 494 kts | 184° |
| 2026-05-04 04:23 | -29.75246 | 116.65341 | 35305 ft | 494 kts | 184° |
| 2026-05-04 04:24 | -29.82121 | 116.65156 | 35312 ft | 495 kts | 184° |
| 2026-05-04 04:24 | -29.89008 | 116.64971 | 35312 ft | 494 kts | 184° |
| 2026-05-04 04:25 | -29.95887 | 116.64785 | 35310 ft | 495 kts | 184° |
| 2026-05-04 04:25 | -30.02778 | 116.64599 | 35322 ft | 495 kts | 184° |
| 2026-05-04 04:26 | -30.09624 | 116.64414 | 35319 ft | 495 kts | 184° |
| 2026-05-04 04:26 | -30.16525 | 116.64228 | 35318 ft | 495 kts | 184° |
| 2026-05-04 04:27 | -30.23406 | 116.64042 | 35322 ft | 495 kts | 184° |
| 2026-05-04 04:27 | -30.30290 | 116.63855 | 35318 ft | 495 kts | 184° |
| 2026-05-04 04:28 | -30.37180 | 116.63668 | 35321 ft | 495 kts | 184° |
| 2026-05-04 04:28 | -30.44075 | 116.63480 | 35320 ft | 495 kts | 184° |
| 2026-05-04 04:29 | -30.50966 | 116.63279 | 35321 ft | 494 kts | 186° |
| 2026-05-04 04:29 | -30.57717 | 116.62104 | 35326 ft | 490 kts | 197° |
| 2026-05-04 04:30 | -30.64192 | 116.59709 | 35324 ft | 488 kts | 201° |
| 2026-05-04 04:30 | -30.70559 | 116.57255 | 35000 ft | 482 kts | 201° |
| 2026-05-04 04:31 | -30.73746 | 116.56024 | 34764 ft | 482 kts | 201° |
| 2026-05-04 04:31 | -30.76933 | 116.54786 | 34528 ft | 482 kts | 201° |
| 2026-05-04 04:31 | -30.80104 | 116.53564 | 34286 ft | 479 kts | 200° |
| 2026-05-04 04:31 | -30.83281 | 116.52347 | 34031 ft | 480 kts | 200° |
| 2026-05-04 04:32 | -30.86454 | 116.51124 | 33456 ft | 482 kts | 200° |
| 2026-05-04 04:32 | -30.89632 | 116.49882 | 32862 ft | 483 kts | 200° |
| 2026-05-04 04:32 | -30.92873 | 116.48624 | 32261 ft | 499 kts | 200° |
| 2026-05-04 04:32 | -30.96221 | 116.47331 | 31836 ft | 510 kts | 200° |
| 2026-05-04 04:33 | -30.99551 | 116.46001 | 31734 ft | 502 kts | 201° |
| 2026-05-04 04:33 | -31.02822 | 116.44670 | 31610 ft | 492 kts | 200° |
| 2026-05-04 04:33 | -31.06013 | 116.43428 | 31255 ft | 475 kts | 200° |
| 2026-05-04 04:33 | -31.09093 | 116.42231 | 30797 ft | 462 kts | 200° |
| 2026-05-04 04:34 | -31.12109 | 116.41049 | 30333 ft | 450 kts | 200° |
| 2026-05-04 04:34 | -31.15037 | 116.39900 | 29824 ft | 439 kts | 200° |
| 2026-05-04 04:34 | -31.17907 | 116.38770 | 29289 ft | 430 kts | 200° |
| 2026-05-04 04:34 | -31.20674 | 116.37681 | 28792 ft | 421 kts | 200° |
| 2026-05-04 04:35 | -31.23456 | 116.36584 | 28285 ft | 413 kts | 200° |
| 2026-05-04 04:35 | -31.26119 | 116.35534 | 27806 ft | 406 kts | 200° |
| 2026-05-04 04:35 | -31.28809 | 116.34487 | 27331 ft | 407 kts | 199° |
| 2026-05-04 04:35 | -31.31502 | 116.33451 | 26850 ft | 408 kts | 199° |
| 2026-05-04 04:36 | -31.34169 | 116.32403 | 26382 ft | 403 kts | 199° |
| 2026-05-04 04:36 | -31.36825 | 116.31358 | 25934 ft | 401 kts | 199° |
| 2026-05-04 04:36 | -31.39450 | 116.30315 | 25481 ft | 397 kts | 199° |
| 2026-05-04 04:36 | -31.42013 | 116.29158 | 25031 ft | 395 kts | 205° |
| 2026-05-04 04:37 | -31.49287 | 116.24583 | 23696 ft | 396 kts | 208° |
| 2026-05-04 04:37 | -31.51705 | 116.23048 | 23190 ft | 395 kts | 207° |
| 2026-05-04 04:38 | -31.54125 | 116.21509 | 22689 ft | 395 kts | 208° |
| 2026-05-04 04:38 | -31.56549 | 116.19956 | 22129 ft | 398 kts | 208° |
| 2026-05-04 04:38 | -31.58990 | 116.18391 | 21498 ft | 400 kts | 208° |
| 2026-05-04 04:38 | -31.61433 | 116.16819 | 20879 ft | 400 kts | 208° |
| 2026-05-04 04:39 | -31.63873 | 116.15243 | 20275 ft | 401 kts | 208° |
| 2026-05-04 04:39 | -31.66321 | 116.13657 | 19680 ft | 401 kts | 208° |
| 2026-05-04 04:39 | -31.68763 | 116.12080 | 19098 ft | 401 kts | 207° |
| 2026-05-04 04:39 | -31.71213 | 116.10503 | 18501 ft | 401 kts | 207° |
| 2026-05-04 04:40 | -31.73646 | 116.08996 | 17780 ft | 401 kts | 204° |
| 2026-05-04 04:40 | -31.76288 | 116.07806 | 17051 ft | 401 kts | 195° |
| 2026-05-04 04:40 | -31.78981 | 116.07046 | 16352 ft | 395 kts | 189° |
| 2026-05-04 04:40 | -31.81684 | 116.06726 | 15691 ft | 387 kts | 178° |
| 2026-05-04 04:41 | -31.84331 | 116.07083 | 15024 ft | 381 kts | 166° |
| 2026-05-04 04:41 | -31.86817 | 116.08067 | 14377 ft | 375 kts | 156° |
| 2026-05-04 04:41 | -31.89187 | 116.09305 | 13647 ft | 370 kts | 155° |
| 2026-05-04 04:41 | -31.91533 | 116.10506 | 12930 ft | 365 kts | 155° |
| 2026-05-04 04:42 | -31.93825 | 116.11671 | 12245 ft | 362 kts | 156° |
| 2026-05-04 04:42 | -31.96149 | 116.12852 | 11543 ft | 358 kts | 155° |
| 2026-05-04 04:42 | -31.98411 | 116.13960 | 10879 ft | 354 kts | 157° |
| 2026-05-04 04:42 | -32.00713 | 116.14989 | 10268 ft | 351 kts | 158° |
| 2026-05-04 04:43 | -32.02974 | 116.15971 | 9868 ft | 339 kts | 158° |
| 2026-05-04 04:43 | -32.05135 | 116.16901 | 9705 ft | 321 kts | 160° |
| 2026-05-04 04:43 | -32.07275 | 116.17393 | 9549 ft | 309 kts | 175° |
| 2026-05-04 04:43 | -32.09360 | 116.17246 | 9398 ft | 299 kts | 188° |
| 2026-05-04 04:44 | -32.11365 | 116.16677 | 9224 ft | 287 kts | 191° |
| 2026-05-04 04:44 | -32.13295 | 116.16129 | 8969 ft | 288 kts | 191° |
| 2026-05-04 04:44 | -32.15229 | 116.15606 | 8652 ft | 283 kts | 190° |
| 2026-05-04 04:44 | -32.17126 | 116.15040 | 8330 ft | 280 kts | 200° |
| 2026-05-04 04:45 | -32.18716 | 116.13767 | 8021 ft | 276 kts | 225° |
| 2026-05-04 04:45 | -32.19648 | 116.11811 | 7707 ft | 275 kts | 253° |
| 2026-05-04 04:45 | -32.19801 | 116.09595 | 7400 ft | 270 kts | 270° |
| 2026-05-04 04:47 | -32.18536 | 115.96924 | 4960 ft | 246 kts | 284° |
| 2026-05-04 04:47 | -32.18117 | 115.94986 | 4476 ft | 241 kts | 284° |
| 2026-05-04 04:47 | -32.17708 | 115.93083 | 3999 ft | 239 kts | 285° |
| 2026-05-04 04:47 | -32.16988 | 115.91360 | 3513 ft | 234 kts | 317° |
| 2026-05-04 04:48 | -32.15620 | 115.90573 | 3156 ft | 204 kts | 356° |
| 2026-05-04 04:49 | -32.11272 | 115.91466 | 2973 ft | 141 kts | 20° |
| 2026-05-04 04:49 | -32.10329 | 115.91742 | 2954 ft | 141 kts | 21° |
| 2026-05-04 04:49 | -32.09373 | 115.92015 | 2803 ft | 141 kts | 18° |
| 2026-05-04 04:49 | -32.08426 | 115.92294 | 2616 ft | 139 kts | 19° |
| 2026-05-04 04:50 | -32.07494 | 115.92571 | 2431 ft | 138 kts | 19° |
| 2026-05-04 04:50 | -32.06554 | 115.92845 | 2240 ft | 140 kts | 18° |
| 2026-05-04 04:50 | -32.05616 | 115.93120 | 2064 ft | 138 kts | 19° |
| 2026-05-04 04:50 | -32.04676 | 115.93398 | 1867 ft | 140 kts | 19° |
| 2026-05-04 04:51 | -32.03726 | 115.93669 | 1683 ft | 140 kts | 18° |
| 2026-05-04 04:51 | -32.02792 | 115.93944 | 1477 ft | 137 kts | 19° |
| 2026-05-04 04:51 | -32.01875 | 115.94215 | 1281 ft | 135 kts | 19° |
| 2026-05-04 04:51 | -32.00958 | 115.94495 | 1102 ft | 136 kts | 18° |
| 2026-05-04 04:52 | -32.00050 | 115.94751 | 931 ft | 136 kts | 18° |
| 2026-05-04 04:52 | -31.99119 | 115.95005 | 757 ft | 137 kts | 19° |
| 2026-05-04 04:52 | -31.98201 | 115.95286 | 560 ft | 134 kts | 18° |
| 2026-05-04 04:52 | -31.97301 | 115.95554 | 407 ft | 132 kts | 15° |
| 2026-05-04 04:53 | -31.96412 | 115.95807 | 219 ft | 131 kts | 16° |
| 2026-05-04 04:53 | -31.95534 | 115.96069 | 69 ft | 127 kts | 17° |
| 2026-05-04 04:53 | -31.94834 | 115.96278 | 64 ft | 83 kts | 13° |
| 2026-05-04 04:53 | -31.94381 | 115.96409 | 69 ft | 47 kts | 14° |
| 2026-05-04 04:54 | -31.94168 | 115.96481 | 65 ft | 24 kts | 34° |
| 2026-05-04 04:54 | -31.94100 | 115.96577 | 66 ft | 7 kts | 58° |
| 2026-05-04 04:54 | -31.94071 | 115.96631 | 67 ft | 8 kts | 58° |
| 2026-05-04 04:54 | -31.94039 | 115.96693 | 68 ft | 9 kts | 59° |
| 2026-05-04 04:55 | -31.94004 | 115.96763 | 70 ft | 11 kts | 59° |
| 2026-05-04 04:55 | -31.93964 | 115.96841 | 66 ft | 11 kts | 58° |
| 2026-05-04 04:55 | -31.93923 | 115.96920 | 70 ft | 12 kts | 76° |
| 2026-05-04 04:55 | -31.93930 | 115.97015 | 64 ft | 13 kts | 103° |
| 2026-05-04 04:56 | -31.93951 | 115.97121 | 70 ft | 14 kts | 103° |
| 2026-05-04 04:56 | -31.93966 | 115.97186 | 64 ft | 0 kts | 120° |
| 2026-05-04 04:56 | -31.93979 | 115.97201 | 62 ft | 5 kts | 143° |
| 2026-05-04 04:56 | -31.93998 | 115.97212 | 68 ft | 5 kts | 172° |
| 2026-05-04 04:57 | -31.94034 | 115.97217 | 68 ft | 1 kts | 171° |
| 2026-05-04 04:57 | -31.94050 | 115.97219 | 63 ft | 1 kts | 171° |
| 2026-05-04 04:57 | -31.94052 | 115.97220 | 64 ft | 0 kts | 171° |